Wetterdaten: Montag, 16.02.2015
Datum Zeit Temp. Aussen +5cm Feuchte Auss Luftdruck Regen Sonnenschein Regendauer Solar Windben
16.02.2015 00:00 -0,6 C -2,8 C 89 % 1015,8 hPa 0,0 l/m 0 min 0 min 0 W/m 6,3 km/h (2 Bft)
16.02.2015 00:02 -0,6 C -2,8 C 89 % 1015,9 hPa 0,0 l/m 0 min 0 min 0 W/m 8,4 km/h (2 Bft)
16.02.2015 00:06 -0,6 C -2,8 C 89 % 1016,0 hPa 0,0 l/m 0 min 0 min 0 W/m 8,4 km/h (2 Bft)
16.02.2015 00:08 -0,6 C -2,8 C 89 % 1015,9 hPa 0,0 l/m 0 min 0 min 0 W/m 8,4 km/h (2 Bft)
16.02.2015 00:10 -0,6 C -2,2 C 89 % 1015,9 hPa 0,0 l/m 0 min 0 min 0 W/m 8,4 km/h (2 Bft)
16.02.2015 00:12 -0,6 C -2,2 C 90 % 1016,0 hPa 0,0 l/m 0 min 0 min 0 W/m 8,4 km/h (2 Bft)
16.02.2015 00:14 -0,6 C -2,2 C 90 % 1016,0 hPa 0,0 l/m 0 min 0 min 0 W/m 6,3 km/h (2 Bft)
16.02.2015 00:16 -0,7 C -2,2 C 90 % 1016,1 hPa 0,0 l/m 0 min 0 min 0 W/m 6,3 km/h (2 Bft)
16.02.2015 00:18 -0,6 C -2,2 C 90 % 1016,1 hPa 0,0 l/m 0 min 0 min 0 W/m 6,3 km/h (2 Bft)
16.02.2015 00:20 -0,6 C -2,2 C 90 % 1016,1 hPa 0,0 l/m 0 min 0 min 0 W/m 8,4 km/h (2 Bft)
16.02.2015 00:22 -0,6 C -2,2 C 90 % 1016,2 hPa 0,0 l/m 0 min 0 min 0 W/m 6,3 km/h (2 Bft)
16.02.2015 00:24 -0,6 C -2,2 C 90 % 1016,2 hPa 0,0 l/m 0 min 0 min 0 W/m 6,3 km/h (2 Bft)
16.02.2015 00:26 -0,6 C -2,2 C 91 % 1016,2 hPa 0,0 l/m 0 min 0 min 0 W/m 8,4 km/h (2 Bft)
16.02.2015 00:28 -0,5 C -2,2 C 91 % 1016,3 hPa 0,0 l/m 0 min 0 min 0 W/m 8,4 km/h (2 Bft)
16.02.2015 00:30 -0,4 C -2,2 C 91 % 1016,4 hPa 0,0 l/m 0 min 0 min 0 W/m 10,5 km/h (2 Bft)
16.02.2015 00:32 -0,4 C -2,2 C 91 % 1016,3 hPa 0,0 l/m 0 min 0 min 0 W/m 10,5 km/h (2 Bft)
16.02.2015 00:34 -0,3 C -1,7 C 91 % 1016,3 hPa 0,0 l/m 0 min 0 min 0 W/m 8,4 km/h (2 Bft)
16.02.2015 00:36 -0,3 C -1,7 C 91 % 1016,3 hPa 0,0 l/m 0 min 0 min 0 W/m 8,4 km/h (2 Bft)
16.02.2015 00:38 -0,2 C -1,7 C 92 % 1016,4 hPa 0,0 l/m 0 min 0 min 0 W/m 10,5 km/h (2 Bft)
16.02.2015 00:40 -0,2 C -1,7 C 92 % 1016,4 hPa 0,0 l/m 0 min 0 min 0 W/m 10,5 km/h (2 Bft)
16.02.2015 00:42 -0,1 C -1,7 C 92 % 1016,4 hPa 0,0 l/m 0 min 0 min 0 W/m 10,5 km/h (2 Bft)
16.02.2015 00:44 0,0 C -1,7 C 92 % 1016,4 hPa 0,0 l/m 0 min 0 min 0 W/m 12,6 km/h (3 Bft)
16.02.2015 00:46 0,1 C -1,1 C 92 % 1016,4 hPa 0,0 l/m 0 min 0 min 0 W/m 14,6 km/h (3 Bft)
16.02.2015 00:48 0,1 C -1,1 C 93 % 1016,4 hPa 0,0 l/m 0 min 0 min 0 W/m 14,6 km/h (3 Bft)
16.02.2015 00:50 0,2 C -1,1 C 93 % 1016,4 hPa 0,0 l/m 0 min 0 min 0 W/m 12,6 km/h (3 Bft)
16.02.2015 00:52 0,3 C -1,1 C 93 % 1016,4 hPa 0,0 l/m 0 min 0 min 0 W/m 8,4 km/h (2 Bft)
16.02.2015 00:54 0,3 C -1,1 C 93 % 1016,4 hPa 0,0 l/m 0 min 0 min 0 W/m 10,5 km/h (2 Bft)
16.02.2015 00:56 0,4 C -1,1 C 93 % 1016,4 hPa 0,0 l/m 0 min 0 min 0 W/m 8,4 km/h (2 Bft)
16.02.2015 00:58 0,4 C -1,1 C 93 % 1016,4 hPa 0,0 l/m 0 min 0 min 0 W/m 10,5 km/h (2 Bft)
16.02.2015 01:00 0,5 C -1,1 C 93 % 1016,5 hPa 0,0 l/m 0 min 0 min 0 W/m 12,6 km/h (3 Bft)
16.02.2015 01:02 0,5 C -1,1 C 93 % 1016,5 hPa 0,0 l/m 0 min 0 min 0 W/m 8,4 km/h (2 Bft)
16.02.2015 01:04 0,5 C -1,1 C 93 % 1016,6 hPa 0,0 l/m 0 min 0 min 0 W/m 12,6 km/h (3 Bft)
16.02.2015 01:06 0,5 C -1,1 C 93 % 1016,6 hPa 0,0 l/m 0 min 0 min 0 W/m 10,5 km/h (2 Bft)
16.02.2015 01:08 0,5 C -1,1 C 93 % 1016,6 hPa 0,0 l/m 0 min 0 min 0 W/m 10,5 km/h (2 Bft)
16.02.2015 01:10 0,5 C -1,1 C 93 % 1016,6 hPa 0,0 l/m 0 min 0 min 0 W/m 10,5 km/h (2 Bft)
16.02.2015 01:12 0,5 C -1,1 C 93 % 1016,6 hPa 0,0 l/m 0 min 0 min 0 W/m 10,5 km/h (2 Bft)
16.02.2015 01:14 0,5 C -1,1 C 93 % 1016,6 hPa 0,0 l/m 0 min 0 min 0 W/m 10,5 km/h (2 Bft)
16.02.2015 01:16 0,5 C -1,1 C 93 % 1016,6 hPa 0,0 l/m 0 min 0 min 0 W/m 10,5 km/h (2 Bft)
16.02.2015 01:18 0,5 C -1,1 C 93 % 1016,5 hPa 0,0 l/m 0 min 0 min 0 W/m 12,6 km/h (3 Bft)
16.02.2015 01:20 0,6 C -1,1 C 93 % 1016,5 hPa 0,0 l/m 0 min 0 min 0 W/m 10,5 km/h (2 Bft)
16.02.2015 01:22 0,6 C -1,1 C 93 % 1016,5 hPa 0,0 l/m 0 min 0 min 0 W/m 10,5 km/h (2 Bft)
16.02.2015 01:24 0,6 C -1,1 C 93 % 1016,5 hPa 0,0 l/m 0 min 0 min 0 W/m 12,6 km/h (3 Bft)
16.02.2015 01:26 0,6 C -1,1 C 93 % 1016,6 hPa 0,0 l/m 0 min 0 min 0 W/m 12,6 km/h (3 Bft)
16.02.2015 01:28 0,6 C -1,1 C 93 % 1016,6 hPa 0,0 l/m 0 min 0 min 0 W/m 10,5 km/h (2 Bft)
16.02.2015 01:30 0,6 C -1,1 C 93 % 1016,6 hPa 0,0 l/m 0 min 0 min 0 W/m 14,6 km/h (3 Bft)
16.02.2015 01:32 0,6 C -1,1 C 93 % 1016,6 hPa 0,0 l/m 0 min 0 min 0 W/m 12,6 km/h (3 Bft)
16.02.2015 01:34 0,6 C -1,1 C 93 % 1016,7 hPa 0,0 l/m 0 min 0 min 0 W/m 12,6 km/h (3 Bft)
16.02.2015 01:36 0,6 C -1,1 C 93 % 1016,6 hPa 0,0 l/m 0 min 0 min 0 W/m 10,5 km/h (2 Bft)
16.02.2015 01:38 0,6 C -1,1 C 93 % 1016,7 hPa 0,0 l/m 0 min 0 min 0 W/m 12,6 km/h (3 Bft)
16.02.2015 01:40 0,7 C -1,1 C 92 % 1016,7 hPa 0,0 l/m 0 min 0 min 0 W/m 10,5 km/h (2 Bft)
16.02.2015 01:42 0,7 C -1,1 C 92 % 1016,7 hPa 0,0 l/m 0 min 0 min 0 W/m 12,6 km/h (3 Bft)
16.02.2015 01:44 0,6 C -1,1 C 92 % 1016,7 hPa 0,0 l/m 0 min 0 min 0 W/m 10,5 km/h (2 Bft)
16.02.2015 01:46 0,6 C -1,1 C 92 % 1016,7 hPa 0,0 l/m 0 min 0 min 0 W/m 8,4 km/h (2 Bft)
16.02.2015 01:48 0,7 C -1,1 C 92 % 1016,8 hPa 0,0 l/m 0 min 0 min 0 W/m 12,6 km/h (3 Bft)
16.02.2015 01:50 0,7 C -1,1 C 92 % 1016,8 hPa 0,0 l/m 0 min 0 min 0 W/m 8,4 km/h (2 Bft)
16.02.2015 01:52 0,7 C -1,1 C 92 % 1016,8 hPa 0,0 l/m 0 min 0 min 0 W/m 10,5 km/h (2 Bft)
16.02.2015 01:54 0,7 C -1,1 C 92 % 1016,8 hPa 0,0 l/m 0 min 0 min 0 W/m 10,5 km/h (2 Bft)
16.02.2015 01:56 0,7 C -1,1 C 92 % 1016,9 hPa 0,0 l/m 0 min 0 min 0 W/m 14,6 km/h (3 Bft)
16.02.2015 01:58 0,7 C -1,1 C 91 % 1016,9 hPa 0,0 l/m 0 min 0 min 0 W/m 8,4 km/h (2 Bft)
16.02.2015 02:00 0,7 C -1,1 C 91 % 1016,9 hPa 0,0 l/m 0 min 0 min 0 W/m 12,6 km/h (3 Bft)
16.02.2015 02:02 0,7 C -1,1 C 91 % 1016,9 hPa 0,0 l/m 0 min 0 min 0 W/m 10,5 km/h (2 Bft)
16.02.2015 02:04 0,7 C -1,1 C 91 % 1016,9 hPa 0,0 l/m 0 min 0 min 0 W/m 10,5 km/h (2 Bft)
16.02.2015 02:06 0,7 C -1,1 C 91 % 1016,9 hPa 0,0 l/m 0 min 0 min 0 W/m 12,6 km/h (3 Bft)
16.02.2015 02:08 0,7 C -1,1 C 91 % 1016,9 hPa 0,0 l/m 0 min 0 min 0 W/m 14,6 km/h (3 Bft)
16.02.2015 02:10 0,6 C -1,1 C 91 % 1016,9 hPa 0,0 l/m 0 min 0 min 0 W/m 12,6 km/h (3 Bft)
16.02.2015 02:12 0,6 C -1,1 C 91 % 1016,9 hPa 0,0 l/m 0 min 0 min 0 W/m 12,6 km/h (3 Bft)
16.02.2015 02:14 0,6 C -1,1 C 90 % 1016,9 hPa 0,0 l/m 0 min 0 min 0 W/m 12,6 km/h (3 Bft)
16.02.2015 02:16 0,6 C -1,1 C 90 % 1016,9 hPa 0,0 l/m 0 min 0 min 0 W/m 14,6 km/h (3 Bft)
16.02.2015 02:18 0,6 C -1,1 C 90 % 1016,9 hPa 0,0 l/m 0 min 0 min 0 W/m 14,6 km/h (3 Bft)
16.02.2015 02:20 0,6 C -1,1 C 90 % 1016,9 hPa 0,0 l/m 0 min 0 min 0 W/m 18,8 km/h (3 Bft)
16.02.2015 02:22 0,6 C -1,1 C 90 % 1016,9 hPa 0,0 l/m 0 min 0 min 0 W/m 10,5 km/h (2 Bft)
16.02.2015 02:24 0,6 C -1,1 C 90 % 1016,9 hPa 0,0 l/m 0 min 0 min 0 W/m 12,6 km/h (3 Bft)
16.02.2015 02:26 0,6 C -1,1 C 90 % 1017,0 hPa 0,0 l/m 0 min 0 min 0 W/m 10,5 km/h (2 Bft)
16.02.2015 02:28 0,6 C -1,1 C 90 % 1017,0 hPa 0,0 l/m 0 min 0 min 0 W/m 10,5 km/h (2 Bft)
16.02.2015 02:30 0,6 C -1,1 C 90 % 1017,0 hPa 0,0 l/m 0 min 0 min 0 W/m 14,6 km/h (3 Bft)
16.02.2015 02:32 0,6 C -1,1 C 90 % 1017,0 hPa 0,0 l/m 0 min 0 min 0 W/m 16,7 km/h (3 Bft)
16.02.2015 02:34 0,6 C -1,1 C 89 % 1017,1 hPa 0,0 l/m 0 min 0 min 0 W/m 12,6 km/h (3 Bft)
16.02.2015 02:36 0,6 C -1,1 C 89 % 1017,1 hPa 0,0 l/m 0 min 0 min 0 W/m 12,6 km/h (3 Bft)
16.02.2015 02:38 0,6 C -1,1 C 89 % 1017,1 hPa 0,0 l/m 0 min 0 min 0 W/m 12,6 km/h (3 Bft)
16.02.2015 02:40 0,6 C -1,1 C 89 % 1017,1 hPa 0,0 l/m 0 min 0 min 0 W/m 14,6 km/h (3 Bft)
16.02.2015 02:42 0,7 C -1,1 C 89 % 1017,2 hPa 0,0 l/m 0 min 0 min 0 W/m 12,6 km/h (3 Bft)
16.02.2015 02:44 0,7 C -1,1 C 89 % 1017,1 hPa 0,0 l/m 0 min 0 min 0 W/m 14,6 km/h (3 Bft)
16.02.2015 02:46 0,7 C -1,1 C 89 % 1017,1 hPa 0,0 l/m 0 min 0 min 0 W/m 8,4 km/h (2 Bft)
16.02.2015 02:48 0,6 C -1,1 C 89 % 1017,1 hPa 0,0 l/m 0 min 0 min 0 W/m 16,7 km/h (3 Bft)
16.02.2015 02:50 0,6 C -1,1 C 89 % 1017,1 hPa 0,0 l/m 0 min 0 min 0 W/m 14,6 km/h (3 Bft)
16.02.2015 02:52 0,6 C -1,1 C 88 % 1017,1 hPa 0,0 l/m 0 min 0 min 0 W/m 10,5 km/h (2 Bft)
16.02.2015 02:54 0,6 C -1,1 C 88 % 1017,1 hPa 0,0 l/m 0 min 0 min 0 W/m 10,5 km/h (2 Bft)
16.02.2015 02:56 0,6 C -1,1 C 88 % 1017,1 hPa 0,0 l/m 0 min 0 min 0 W/m 12,6 km/h (3 Bft)
16.02.2015 02:58 0,6 C -1,1 C 88 % 1017,1 hPa 0,0 l/m 0 min 0 min 0 W/m 10,5 km/h (2 Bft)
16.02.2015 03:00 0,6 C -1,1 C 88 % 1017,1 hPa 0,0 l/m 0 min 0 min 0 W/m 8,4 km/h (2 Bft)
16.02.2015 03:02 0,6 C -1,1 C 88 % 1017,1 hPa 0,0 l/m 0 min 0 min 0 W/m 12,6 km/h (3 Bft)
16.02.2015 03:04 0,5 C -1,1 C 88 % 1017,2 hPa 0,0 l/m 0 min 0 min 0 W/m 8,4 km/h (2 Bft)
16.02.2015 03:06 0,5 C -1,1 C 88 % 1017,2 hPa 0,0 l/m 0 min 0 min 0 W/m 10,5 km/h (2 Bft)
16.02.2015 03:08 0,5 C -1,7 C 88 % 1017,2 hPa 0,0 l/m 0 min 0 min 0 W/m 12,6 km/h (3 Bft)
16.02.2015 03:10 0,5 C -1,1 C 88 % 1017,2 hPa 0,0 l/m 0 min 0 min 0 W/m 8,4 km/h (2 Bft)
16.02.2015 03:12 0,5 C -1,7 C 88 % 1017,1 hPa 0,0 l/m 0 min 0 min 0 W/m 10,5 km/h (2 Bft)
16.02.2015 03:14 0,5 C -1,7 C 88 % 1017,2 hPa 0,0 l/m 0 min 0 min 0 W/m 8,4 km/h (2 Bft)
16.02.2015 03:16 0,5 C -1,7 C 88 % 1017,2 hPa 0,0 l/m 0 min 0 min 0 W/m 8,4 km/h (2 Bft)
16.02.2015 03:18 0,5 C -1,7 C 88 % 1017,2 hPa 0,0 l/m 0 min 0 min 0 W/m 10,5 km/h (2 Bft)
16.02.2015 03:20 0,5 C -1,7 C 88 % 1017,2 hPa 0,0 l/m 0 min 0 min 0 W/m 8,4 km/h (2 Bft)
16.02.2015 03:22 0,5 C -1,1 C 88 % 1017,2 hPa 0,0 l/m 0 min 0 min 0 W/m 10,5 km/h (2 Bft)
16.02.2015 03:24 0,5 C -1,1 C 88 % 1017,2 hPa 0,0 l/m 0 min 0 min 0 W/m 8,4 km/h (2 Bft)
16.02.2015 03:26 0,5 C -1,7 C 88 % 1017,3 hPa 0,0 l/m 0 min 0 min 0 W/m 10,5 km/h (2 Bft)
16.02.2015 03:28 0,5 C -1,7 C 88 % 1017,3 hPa 0,0 l/m 0 min 0 min 0 W/m 10,5 km/h (2 Bft)
16.02.2015 03:30 0,5 C -1,7 C 88 % 1017,3 hPa 0,0 l/m 0 min 0 min 0 W/m 14,6 km/h (3 Bft)
16.02.2015 03:32 0,4 C -1,7 C 88 % 1017,3 hPa 0,0 l/m 0 min 0 min 0 W/m 10,5 km/h (2 Bft)
16.02.2015 03:34 0,4 C -1,7 C 88 % 1017,3 hPa 0,0 l/m 0 min 0 min 0 W/m 10,5 km/h (2 Bft)
16.02.2015 03:36 0,4 C -1,7 C 88 % 1017,3 hPa 0,0 l/m 0 min 0 min 0 W/m 14,6 km/h (3 Bft)
16.02.2015 03:38 0,4 C -1,7 C 88 % 1017,3 hPa 0,0 l/m 0 min 0 min 0 W/m 12,6 km/h (3 Bft)
16.02.2015 03:40 0,4 C -1,1 C 88 % 1017,3 hPa 0,0 l/m 0 min 0 min 0 W/m 14,6 km/h (3 Bft)
16.02.2015 03:42 0,4 C -1,1 C 88 % 1017,3 hPa 0,0 l/m 0 min 0 min 0 W/m 14,6 km/h (3 Bft)
16.02.2015 03:44 0,4 C -1,1 C 88 % 1017,2 hPa 0,0 l/m 0 min 0 min 0 W/m 16,7 km/h (3 Bft)
16.02.2015 03:46 0,4 C -1,1 C 88 % 1017,3 hPa 0,0 l/m 0 min 0 min 0 W/m 10,5 km/h (2 Bft)
16.02.2015 03:48 0,4 C -1,1 C 88 % 1017,3 hPa 0,0 l/m 0 min 0 min 0 W/m 12,6 km/h (3 Bft)
16.02.2015 03:50 0,4 C -1,1 C 88 % 1017,3 hPa 0,0 l/m 0 min 0 min 0 W/m 14,6 km/h (3 Bft)
16.02.2015 03:52 0,4 C -1,7 C 88 % 1017,3 hPa 0,0 l/m 0 min 0 min 0 W/m 14,6 km/h (3 Bft)
16.02.2015 03:54 0,4 C -1,1 C 88 % 1017,3 hPa 0,0 l/m 0 min 0 min 0 W/m 14,6 km/h (3 Bft)
16.02.2015 03:56 0,4 C -1,1 C 88 % 1017,3 hPa 0,0 l/m 0 min 0 min 0 W/m 12,6 km/h (3 Bft)
16.02.2015 03:58 0,4 C -1,1 C 88 % 1017,3 hPa 0,0 l/m 0 min 0 min 0 W/m 14,6 km/h (3 Bft)
16.02.2015 04:00 0,3 C -1,1 C 88 % 1017,3 hPa 0,0 l/m 0 min 0 min 0 W/m 12,6 km/h (3 Bft)
16.02.2015 04:02 0,3 C -1,1 C 88 % 1017,3 hPa 0,0 l/m 0 min 0 min 0 W/m 14,6 km/h (3 Bft)
16.02.2015 04:04 0,3 C -1,1 C 88 % 1017,3 hPa 0,0 l/m 0 min 0 min 0 W/m 12,6 km/h (3 Bft)
16.02.2015 04:06 0,3 C -1,1 C 88 % 1017,3 hPa 0,0 l/m 0 min 0 min 0 W/m 10,5 km/h (2 Bft)
16.02.2015 04:08 0,3 C -1,1 C 88 % 1017,3 hPa 0,0 l/m 0 min 0 min 0 W/m 14,6 km/h (3 Bft)
16.02.2015 04:10 0,3 C -1,1 C 88 % 1017,3 hPa 0,0 l/m 0 min 0 min 0 W/m 12,6 km/h (3 Bft)
16.02.2015 04:12 0,3 C -1,7 C 88 % 1017,3 hPa 0,0 l/m 0 min 0 min 0 W/m 12,6 km/h (3 Bft)
16.02.2015 04:14 0,3 C -1,1 C 88 % 1017,3 hPa 0,0 l/m 0 min 0 min 0 W/m 12,6 km/h (3 Bft)
16.02.2015 04:16 0,3 C -1,7 C 89 % 1017,3 hPa 0,0 l/m 0 min 0 min 0 W/m 12,6 km/h (3 Bft)
16.02.2015 04:18 0,3 C -1,7 C 89 % 1017,3 hPa 0,0 l/m 0 min 0 min 0 W/m 14,6 km/h (3 Bft)
16.02.2015 04:20 0,3 C -1,7 C 88 % 1017,4 hPa 0,0 l/m 0 min 0 min 0 W/m 12,6 km/h (3 Bft)
16.02.2015 04:22 0,3 C -1,7 C 88 % 1017,4 hPa 0,0 l/m 0 min 0 min 0 W/m 14,6 km/h (3 Bft)
16.02.2015 04:24 0,3 C -1,7 C 88 % 1017,3 hPa 0,0 l/m 0 min 0 min 0 W/m 14,6 km/h (3 Bft)
16.02.2015 04:26 0,3 C -1,7 C 88 % 1017,4 hPa 0,0 l/m 0 min 0 min 0 W/m 14,6 km/h (3 Bft)
16.02.2015 04:28 0,2 C -1,7 C 88 % 1017,4 hPa 0,0 l/m 0 min 0 min 0 W/m 16,7 km/h (3 Bft)
16.02.2015 04:30 0,2 C -1,7 C 88 % 1017,3 hPa 0,0 l/m 0 min 0 min 0 W/m 10,5 km/h (2 Bft)
16.02.2015 04:32 0,2 C -1,7 C 88 % 1017,4 hPa 0,0 l/m 0 min 0 min 0 W/m 14,6 km/h (3 Bft)
16.02.2015 04:34 0,2 C -1,7 C 88 % 1017,4 hPa 0,0 l/m 0 min 0 min 0 W/m 16,7 km/h (3 Bft)
16.02.2015 04:36 0,2 C -1,7 C 89 % 1017,4 hPa 0,0 l/m 0 min 0 min 0 W/m 14,6 km/h (3 Bft)
16.02.2015 04:38 0,2 C -1,7 C 89 % 1017,5 hPa 0,0 l/m 0 min 0 min 0 W/m 14,6 km/h (3 Bft)
16.02.2015 04:40 0,2 C -1,7 C 89 % 1017,5 hPa 0,0 l/m 0 min 0 min 0 W/m 16,7 km/h (3 Bft)
16.02.2015 04:42 0,2 C -1,7 C 89 % 1017,5 hPa 0,0 l/m 0 min 0 min 0 W/m 14,6 km/h (3 Bft)
16.02.2015 04:44 0,2 C -1,7 C 89 % 1017,6 hPa 0,0 l/m 0 min 0 min 0 W/m 14,6 km/h (3 Bft)
16.02.2015 04:46 0,2 C -1,7 C 89 % 1017,5 hPa 0,0 l/m 0 min 0 min 0 W/m 14,6 km/h (3 Bft)
16.02.2015 04:48 0,2 C -1,7 C 89 % 1017,6 hPa 0,0 l/m 0 min 0 min 0 W/m 16,7 km/h (3 Bft)
16.02.2015 04:50 0,2 C -1,7 C 89 % 1017,6 hPa 0,0 l/m 0 min 0 min 0 W/m 14,6 km/h (3 Bft)
16.02.2015 04:52 0,2 C -1,7 C 89 % 1017,6 hPa 0,0 l/m 0 min 0 min 0 W/m 14,6 km/h (3 Bft)
16.02.2015 04:54 0,2 C -1,7 C 89 % 1017,6 hPa 0,0 l/m 0 min 0 min 0 W/m 12,6 km/h (3 Bft)
16.02.2015 04:56 0,1 C -1,7 C 89 % 1017,6 hPa 0,0 l/m 0 min 0 min 0 W/m 14,6 km/h (3 Bft)
16.02.2015 04:58 0,1 C -1,7 C 89 % 1017,6 hPa 0,0 l/m 0 min 0 min 0 W/m 12,6 km/h (3 Bft)
16.02.2015 05:00 0,1 C -1,7 C 89 % 1017,6 hPa 0,0 l/m 0 min 0 min 0 W/m 14,6 km/h (3 Bft)
16.02.2015 05:02 0,1 C -1,7 C 89 % 1017,7 hPa 0,0 l/m 0 min 0 min 0 W/m 12,6 km/h (3 Bft)
16.02.2015 05:04 0,1 C -1,7 C 89 % 1017,7 hPa 0,0 l/m 0 min 0 min 0 W/m 12,6 km/h (3 Bft)
16.02.2015 05:06 0,1 C -1,7 C 89 % 1017,7 hPa 0,0 l/m 0 min 0 min 0 W/m 16,7 km/h (3 Bft)
16.02.2015 05:08 0,1 C -1,7 C 89 % 1017,7 hPa 0,0 l/m 0 min 0 min 0 W/m 14,6 km/h (3 Bft)
16.02.2015 05:10 0,1 C -1,7 C 89 % 1017,7 hPa 0,0 l/m 0 min 0 min 0 W/m 16,7 km/h (3 Bft)
16.02.2015 05:12 0,1 C -1,7 C 89 % 1017,8 hPa 0,0 l/m 0 min 0 min 0 W/m 16,7 km/h (3 Bft)
16.02.2015 05:14 0,1 C -1,7 C 90 % 1017,8 hPa 0,0 l/m 0 min 0 min 0 W/m 12,6 km/h (3 Bft)
16.02.2015 05:16 0,0 C -1,7 C 90 % 1017,7 hPa 0,0 l/m 0 min 0 min 0 W/m 12,6 km/h (3 Bft)
16.02.2015 05:18 0,0 C -1,7 C 90 % 1017,7 hPa 0,0 l/m 0 min 0 min 0 W/m 14,6 km/h (3 Bft)
16.02.2015 05:20 0,0 C -1,7 C 90 % 1017,7 hPa 0,0 l/m 0 min 0 min 0 W/m 12,6 km/h (3 Bft)
16.02.2015 05:22 0,0 C -1,7 C 90 % 1017,7 hPa 0,0 l/m 0 min 0 min 0 W/m 12,6 km/h (3 Bft)
16.02.2015 05:24 0,0 C -1,7 C 90 % 1017,7 hPa 0,0 l/m 0 min 0 min 0 W/m 14,6 km/h (3 Bft)
16.02.2015 05:26 0,0 C -1,7 C 90 % 1017,8 hPa 0,0 l/m 0 min 0 min 0 W/m 14,6 km/h (3 Bft)
16.02.2015 05:28 -0,1 C -1,7 C 90 % 1017,8 hPa 0,0 l/m 0 min 0 min 0 W/m 14,6 km/h (3 Bft)
16.02.2015 05:30 -0,1 C -1,7 C 90 % 1017,7 hPa 0,0 l/m 0 min 0 min 0 W/m 20,9 km/h (4 Bft)
16.02.2015 05:32 -0,1 C -1,7 C 90 % 1017,8 hPa 0,0 l/m 0 min 0 min 0 W/m 14,6 km/h (3 Bft)
16.02.2015 05:34 0,0 C -1,7 C 90 % 1017,9 hPa 0,0 l/m 0 min 0 min 0 W/m 10,5 km/h (2 Bft)
16.02.2015 05:36 -0,1 C -1,7 C 90 % 1017,8 hPa 0,0 l/m 0 min 0 min 0 W/m 12,6 km/h (3 Bft)
16.02.2015 05:38 -0,1 C -1,7 C 90 % 1017,8 hPa 0,0 l/m 0 min 0 min 0 W/m 14,6 km/h (3 Bft)
16.02.2015 05:40 -0,1 C -1,7 C 90 % 1017,8 hPa 0,0 l/m 0 min 0 min 0 W/m 10,5 km/h (2 Bft)
16.02.2015 05:42 -0,1 C -1,7 C 90 % 1017,8 hPa 0,0 l/m 0 min 0 min 0 W/m 10,5 km/h (2 Bft)
16.02.2015 05:44 -0,1 C -1,7 C 90 % 1017,7 hPa 0,0 l/m 0 min 0 min 0 W/m 12,6 km/h (3 Bft)
16.02.2015 05:46 -0,1 C -1,7 C 90 % 1017,8 hPa 0,0 l/m 0 min 0 min 0 W/m 12,6 km/h (3 Bft)
16.02.2015 05:48 -0,1 C -1,7 C 90 % 1017,8 hPa 0,0 l/m 0 min 0 min 0 W/m 16,7 km/h (3 Bft)
16.02.2015 05:50 -0,1 C -1,7 C 90 % 1017,8 hPa 0,0 l/m 0 min 0 min 0 W/m 16,7 km/h (3 Bft)
16.02.2015 05:52 -0,1 C -1,7 C 90 % 1017,8 hPa 0,0 l/m 0 min 0 min 0 W/m 14,6 km/h (3 Bft)
16.02.2015 05:54 -0,1 C -1,7 C 90 % 1017,7 hPa 0,0 l/m 0 min 0 min 0 W/m 16,7 km/h (3 Bft)
16.02.2015 05:56 -0,1 C -1,7 C 91 % 1017,8 hPa 0,0 l/m 0 min 0 min 0 W/m 18,8 km/h (3 Bft)
16.02.2015 05:58 -0,1 C -1,7 C 91 % 1017,7 hPa 0,0 l/m 0 min 0 min 0 W/m 16,7 km/h (3 Bft)
16.02.2015 06:00 -0,1 C -1,7 C 91 % 1017,7 hPa 0,0 l/m 0 min 0 min 0 W/m 12,6 km/h (3 Bft)
16.02.2015 06:02 -0,1 C -1,7 C 91 % 1017,7 hPa 0,0 l/m 0 min 0 min 0 W/m 16,7 km/h (3 Bft)
16.02.2015 06:04 -0,1 C -1,7 C 91 % 1017,7 hPa 0,0 l/m 0 min 0 min 0 W/m 16,7 km/h (3 Bft)
16.02.2015 06:06 -0,1 C -1,7 C 91 % 1017,7 hPa 0,0 l/m 0 min 0 min 0 W/m 16,7 km/h (3 Bft)
16.02.2015 06:08 -0,1 C -1,7 C 91 % 1017,6 hPa 0,0 l/m 0 min 0 min 0 W/m 12,6 km/h (3 Bft)
16.02.2015 06:10 -0,1 C -1,7 C 91 % 1017,7 hPa 0,0 l/m 0 min 0 min 0 W/m 18,8 km/h (3 Bft)
16.02.2015 06:12 -0,1 C -1,7 C 91 % 1017,7 hPa 0,0 l/m 0 min 0 min 0 W/m 16,7 km/h (3 Bft)
16.02.2015 06:14 -0,1 C -1,7 C 91 % 1017,7 hPa 0,0 l/m 0 min 0 min 0 W/m 16,7 km/h (3 Bft)
16.02.2015 06:16 -0,1 C -1,7 C 91 % 1017,7 hPa 0,0 l/m 0 min 0 min 0 W/m 16,7 km/h (3 Bft)
16.02.2015 06:18 -0,1 C -1,7 C 91 % 1017,7 hPa 0,0 l/m 0 min 0 min 0 W/m 16,7 km/h (3 Bft)
16.02.2015 06:20 -0,1 C -1,7 C 91 % 1017,6 hPa 0,0 l/m 0 min 0 min 0 W/m 16,7 km/h (3 Bft)
16.02.2015 06:22 -0,1 C -1,7 C 91 % 1017,7 hPa 0,0 l/m 0 min 0 min 0 W/m 16,7 km/h (3 Bft)
16.02.2015 06:24 -0,1 C -1,7 C 91 % 1017,6 hPa 0,0 l/m 0 min 0 min 0 W/m 16,7 km/h (3 Bft)
16.02.2015 06:26 -0,1 C -1,7 C 91 % 1017,6 hPa 0,0 l/m 0 min 0 min 0 W/m 18,8 km/h (3 Bft)
16.02.2015 06:28 -0,1 C -1,7 C 91 % 1017,6 hPa 0,0 l/m 0 min 0 min 0 W/m 16,7 km/h (3 Bft)
16.02.2015 06:30 -0,1 C -1,7 C 91 % 1017,6 hPa 0,0 l/m 0 min 0 min 0 W/m 12,6 km/h (3 Bft)
16.02.2015 06:32 -0,1 C -1,7 C 91 % 1017,6 hPa 0,0 l/m 0 min 0 min 0 W/m 14,6 km/h (3 Bft)
16.02.2015 06:34 -0,1 C -1,7 C 91 % 1017,5 hPa 0,0 l/m 0 min 0 min 0 W/m 16,7 km/h (3 Bft)
16.02.2015 06:36 -0,1 C -1,7 C 91 % 1017,6 hPa 0,0 l/m 0 min 0 min 0 W/m 14,6 km/h (3 Bft)
16.02.2015 06:38 -0,1 C -1,7 C 91 % 1017,6 hPa 0,0 l/m 0 min 0 min 0 W/m 20,9 km/h (4 Bft)
16.02.2015 06:40 -0,1 C -1,7 C 91 % 1017,6 hPa 0,0 l/m 0 min 0 min 0 W/m 14,6 km/h (3 Bft)
16.02.2015 06:42 -0,1 C -1,7 C 91 % 1017,6 hPa 0,0 l/m 0 min 0 min 0 W/m 14,6 km/h (3 Bft)
16.02.2015 06:44 -0,1 C -1,7 C 91 % 1017,5 hPa 0,0 l/m 0 min 0 min 0 W/m 18,8 km/h (3 Bft)
16.02.2015 06:46 -0,1 C -1,7 C 91 % 1017,5 hPa 0,0 l/m 0 min 0 min 0 W/m 12,6 km/h (3 Bft)
16.02.2015 06:48 -0,2 C -1,7 C 91 % 1017,5 hPa 0,0 l/m 0 min 0 min 0 W/m 16,7 km/h (3 Bft)
16.02.2015 06:50 -0,2 C -1,7 C 91 % 1017,5 hPa 0,0 l/m 0 min 0 min 0 W/m 14,6 km/h (3 Bft)
16.02.2015 06:52 -0,2 C -1,7 C 91 % 1017,6 hPa 0,0 l/m 0 min 0 min 0 W/m 14,6 km/h (3 Bft)
16.02.2015 06:54 -0,2 C -1,7 C 91 % 1017,5 hPa 0,0 l/m 0 min 0 min 0 W/m 16,7 km/h (3 Bft)
16.02.2015 06:56 -0,2 C -1,7 C 91 % 1017,6 hPa 0,0 l/m 0 min 0 min 0 W/m 14,6 km/h (3 Bft)
16.02.2015 06:58 -0,2 C -1,7 C 91 % 1017,6 hPa 0,0 l/m 0 min 0 min 0 W/m 16,7 km/h (3 Bft)
16.02.2015 07:00 -0,2 C -1,7 C 91 % 1017,6 hPa 0,0 l/m 0 min 0 min 0 W/m 12,6 km/h (3 Bft)
16.02.2015 07:02 -0,2 C -1,7 C 92 % 1017,6 hPa 0,0 l/m 0 min 0 min 0 W/m 16,7 km/h (3 Bft)
16.02.2015 07:04 -0,2 C -1,7 C 91 % 1017,6 hPa 0,0 l/m 0 min 0 min 0 W/m 16,7 km/h (3 Bft)
16.02.2015 07:06 -0,2 C -1,7 C 91 % 1017,7 hPa 0,0 l/m 0 min 0 min 0 W/m 16,7 km/h (3 Bft)
16.02.2015 07:08 -0,2 C -1,7 C 91 % 1017,7 hPa 0,0 l/m 0 min 0 min 0 W/m 18,8 km/h (3 Bft)
16.02.2015 07:10 -0,2 C -1,7 C 91 % 1017,7 hPa 0,0 l/m 0 min 0 min 0 W/m 23,0 km/h (4 Bft)
16.02.2015 07:12 -0,2 C -1,7 C 91 % 1017,7 hPa 0,0 l/m 0 min 0 min 0 W/m 14,6 km/h (3 Bft)
16.02.2015 07:14 -0,2 C -1,7 C 91 % 1017,8 hPa 0,0 l/m 0 min 0 min 0 W/m 18,8 km/h (3 Bft)
16.02.2015 07:16 -0,2 C -1,7 C 92 % 1017,7 hPa 0,0 l/m 0 min 0 min 0 W/m 12,6 km/h (3 Bft)
16.02.2015 07:18 -0,2 C -1,7 C 92 % 1017,6 hPa 0,0 l/m 0 min 0 min 0 W/m 16,7 km/h (3 Bft)
16.02.2015 07:20 -0,2 C -1,7 C 92 % 1017,7 hPa 0,0 l/m 0 min 0 min 0 W/m 16,7 km/h (3 Bft)
16.02.2015 07:22 -0,2 C -1,7 C 92 % 1017,7 hPa 0,0 l/m 0 min 0 min 0 W/m 20,9 km/h (4 Bft)
16.02.2015 07:24 -0,2 C -1,7 C 92 % 1017,7 hPa 0,0 l/m 0 min 0 min 0 W/m 12,6 km/h (3 Bft)
16.02.2015 07:26 -0,2 C -1,7 C 92 % 1017,8 hPa 0,0 l/m 0 min 0 min 0 W/m 14,6 km/h (3 Bft)
16.02.2015 07:28 -0,2 C -1,7 C 92 % 1017,8 hPa 0,0 l/m 0 min 0 min 0 W/m 12,6 km/h (3 Bft)
16.02.2015 07:30 -0,2 C -1,7 C 92 % 1017,8 hPa 0,0 l/m 0 min 0 min 0 W/m 16,7 km/h (3 Bft)
16.02.2015 07:32 -0,3 C -1,7 C 92 % 1017,8 hPa 0,0 l/m 0 min 0 min 0 W/m 14,6 km/h (3 Bft)
16.02.2015 07:34 -0,3 C -1,7 C 92 % 1017,8 hPa 0,0 l/m 0 min 0 min 0 W/m 14,6 km/h (3 Bft)
16.02.2015 07:36 -0,3 C -1,7 C 92 % 1017,7 hPa 0,0 l/m 0 min 0 min 0 W/m 14,6 km/h (3 Bft)
16.02.2015 07:38 -0,3 C -1,7 C 92 % 1017,8 hPa 0,0 l/m 0 min 0 min 0 W/m 14,6 km/h (3 Bft)
16.02.2015 07:40 -0,3 C -1,7 C 92 % 1017,8 hPa 0,0 l/m 0 min 0 min 4 W/m 10,5 km/h (2 Bft)
16.02.2015 07:42 -0,3 C -1,7 C 92 % 1017,8 hPa 0,0 l/m 0 min 0 min 5 W/m 12,6 km/h (3 Bft)
16.02.2015 07:44 -0,3 C -1,7 C 92 % 1017,8 hPa 0,0 l/m 0 min 0 min 5 W/m 10,5 km/h (2 Bft)
16.02.2015 07:46 -0,3 C -1,7 C 92 % 1017,8 hPa 0,0 l/m 0 min 0 min 7 W/m 14,6 km/h (3 Bft)
16.02.2015 07:48 -0,3 C -1,7 C 92 % 1017,8 hPa 0,0 l/m 0 min 0 min 7 W/m 10,5 km/h (2 Bft)
16.02.2015 07:50 -0,3 C -1,7 C 92 % 1017,8 hPa 0,0 l/m 0 min 0 min 8 W/m 14,6 km/h (3 Bft)
16.02.2015 07:52 -0,3 C -1,7 C 92 % 1017,7 hPa 0,0 l/m 0 min 0 min 9 W/m 12,6 km/h (3 Bft)
16.02.2015 07:54 -0,3 C -1,7 C 92 % 1017,8 hPa 0,0 l/m 0 min 0 min 10 W/m 16,7 km/h (3 Bft)
16.02.2015 07:56 -0,3 C -1,7 C 92 % 1017,8 hPa 0,0 l/m 0 min 0 min 11 W/m 12,6 km/h (3 Bft)
16.02.2015 07:58 -0,4 C -1,7 C 92 % 1017,9 hPa 0,0 l/m 2 min 0 min 12 W/m 8,4 km/h (2 Bft)
16.02.2015 08:00 -0,4 C -1,7 C 92 % 1017,8 hPa 0,0 l/m 2 min 0 min 13 W/m 14,6 km/h (3 Bft)
16.02.2015 08:02 -0,4 C -1,7 C 92 % 1017,7 hPa 0,0 l/m 2 min 0 min 15 W/m 16,7 km/h (3 Bft)
16.02.2015 08:04 -0,4 C -1,7 C 92 % 1017,7 hPa 0,0 l/m 2 min 0 min 17 W/m 8,4 km/h (2 Bft)
16.02.2015 08:06 -0,4 C -1,7 C 92 % 1017,8 hPa 0,0 l/m 2 min 0 min 18 W/m 14,6 km/h (3 Bft)
16.02.2015 08:08 -0,4 C -1,7 C 92 % 1018,0 hPa 0,0 l/m 0 min 0 min 20 W/m 12,6 km/h (3 Bft)
16.02.2015 08:10 -0,4 C -1,7 C 92 % 1018,0 hPa 0,0 l/m 0 min 0 min 22 W/m 14,6 km/h (3 Bft)
16.02.2015 08:12 -0,4 C -1,7 C 92 % 1018,0 hPa 0,0 l/m 0 min 0 min 23 W/m 18,8 km/h (3 Bft)
16.02.2015 08:14 -0,3 C -1,7 C 92 % 1018,0 hPa 0,0 l/m 0 min 0 min 25 W/m 12,6 km/h (3 Bft)
16.02.2015 08:16 -0,3 C -1,7 C 92 % 1017,9 hPa 0,0 l/m 0 min 0 min 27 W/m 10,5 km/h (2 Bft)
16.02.2015 08:18 -0,3 C -1,7 C 92 % 1017,9 hPa 0,0 l/m 0 min 0 min 30 W/m 12,6 km/h (3 Bft)
16.02.2015 08:20 -0,3 C -1,7 C 92 % 1017,9 hPa 0,0 l/m 0 min 0 min 32 W/m 14,6 km/h (3 Bft)
16.02.2015 08:22 -0,3 C -1,7 C 92 % 1017,9 hPa 0,0 l/m 0 min 0 min 34 W/m 18,8 km/h (3 Bft)
16.02.2015 08:24 -0,3 C -1,7 C 92 % 1017,8 hPa 0,0 l/m 0 min 0 min 37 W/m 16,7 km/h (3 Bft)
16.02.2015 08:26 -0,3 C -1,7 C 92 % 1018,0 hPa 0,0 l/m 0 min 0 min 40 W/m 20,9 km/h (4 Bft)
16.02.2015 08:28 -0,3 C -1,7 C 92 % 1018,0 hPa 0,0 l/m 0 min 0 min 43 W/m 16,7 km/h (3 Bft)
16.02.2015 08:30 -0,3 C -1,7 C 92 % 1018,0 hPa 0,0 l/m 0 min 0 min 46 W/m 12,6 km/h (3 Bft)
16.02.2015 08:32 -0,3 C -1,1 C 92 % 1017,9 hPa 0,0 l/m 0 min 0 min 49 W/m 12,6 km/h (3 Bft)
16.02.2015 08:34 -0,3 C -1,1 C 92 % 1017,9 hPa 0,0 l/m 0 min 0 min 52 W/m 14,6 km/h (3 Bft)
16.02.2015 08:36 -0,2 C -1,1 C 92 % 1017,9 hPa 0,0 l/m 0 min 0 min 54 W/m 16,7 km/h (3 Bft)
16.02.2015 08:38 -0,2 C -1,1 C 93 % 1017,9 hPa 0,0 l/m 2 min 0 min 58 W/m 14,6 km/h (3 Bft)
16.02.2015 08:40 -0,2 C -1,1 C 93 % 1017,9 hPa 0,0 l/m 2 min 0 min 61 W/m 12,6 km/h (3 Bft)
16.02.2015 08:42 -0,2 C -1,1 C 93 % 1017,9 hPa 0,0 l/m 2 min 0 min 65 W/m 16,7 km/h (3 Bft)
16.02.2015 08:44 -0,2 C -1,1 C 93 % 1018,1 hPa 0,0 l/m 2 min 0 min 69 W/m 14,6 km/h (3 Bft)
16.02.2015 08:46 -0,2 C -1,1 C 93 % 1017,9 hPa 0,0 l/m 2 min 0 min 71 W/m 14,6 km/h (3 Bft)
16.02.2015 08:48 -0,1 C -1,1 C 93 % 1018,0 hPa 0,0 l/m 2 min 0 min 76 W/m 14,6 km/h (3 Bft)
16.02.2015 08:50 -0,1 C -1,1 C 93 % 1018,0 hPa 0,0 l/m 2 min 0 min 79 W/m 16,7 km/h (3 Bft)
16.02.2015 08:52 -0,1 C -1,1 C 93 % 1018,0 hPa 0,0 l/m 2 min 0 min 83 W/m 16,7 km/h (3 Bft)
16.02.2015 08:54 -0,1 C -1,1 C 93 % 1018,0 hPa 0,0 l/m 2 min 0 min 87 W/m 18,8 km/h (3 Bft)
16.02.2015 08:56 -0,1 C -1,1 C 93 % 1018,0 hPa 0,0 l/m 2 min 0 min 90 W/m 16,7 km/h (3 Bft)
16.02.2015 08:58 -0,1 C -1,1 C 93 % 1018,0 hPa 0,0 l/m 2 min 0 min 95 W/m 20,9 km/h (4 Bft)
16.02.2015 09:00 0,0 C -0,6 C 93 % 1018,0 hPa 0,0 l/m 2 min 0 min 100 W/m 14,6 km/h (3 Bft)
16.02.2015 09:02 0,0 C -0,6 C 93 % 1018,0 hPa 0,0 l/m 2 min 0 min 104 W/m 18,8 km/h (3 Bft)
16.02.2015 09:04 0,1 C -0,6 C 93 % 1018,0 hPa 0,0 l/m 2 min 0 min 107 W/m 18,8 km/h (3 Bft)
16.02.2015 09:06 0,1 C -0,6 C 93 % 1018,0 hPa 0,0 l/m 2 min 0 min 113 W/m 16,7 km/h (3 Bft)
16.02.2015 09:08 0,1 C -0,6 C 93 % 1018,0 hPa 0,0 l/m 2 min 0 min 118 W/m 23,0 km/h (4 Bft)
16.02.2015 09:10 0,1 C -0,6 C 93 % 1018,0 hPa 0,0 l/m 2 min 0 min 123 W/m 18,8 km/h (3 Bft)
16.02.2015 09:12 0,2 C -0,6 C 93 % 1018,0 hPa 0,0 l/m 2 min 0 min 127 W/m 14,6 km/h (3 Bft)
16.02.2015 09:14 0,2 C -0,6 C 93 % 1018,0 hPa 0,0 l/m 2 min 0 min 132 W/m 18,8 km/h (3 Bft)
16.02.2015 09:16 0,2 C -0,6 C 93 % 1018,0 hPa 0,0 l/m 2 min 0 min 137 W/m 23,0 km/h (4 Bft)
16.02.2015 09:18 0,2 C -0,6 C 93 % 1018,2 hPa 0,0 l/m 2 min 0 min 141 W/m 18,8 km/h (3 Bft)
16.02.2015 09:20 0,3 C -0,6 C 93 % 1018,0 hPa 0,0 l/m 2 min 0 min 146 W/m 14,6 km/h (3 Bft)
16.02.2015 09:22 0,3 C -0,6 C 93 % 1018,0 hPa 0,0 l/m 2 min 0 min 150 W/m 23,0 km/h (4 Bft)
16.02.2015 09:24 0,4 C -0,6 C 93 % 1018,1 hPa 0,0 l/m 2 min 0 min 156 W/m 16,7 km/h (3 Bft)
16.02.2015 09:26 0,4 C -0,6 C 93 % 1018,1 hPa 0,0 l/m 2 min 0 min 159 W/m 18,8 km/h (3 Bft)
16.02.2015 09:28 0,5 C -0,6 C 93 % 1018,2 hPa 0,0 l/m 2 min 0 min 164 W/m 23,0 km/h (4 Bft)
16.02.2015 09:30 0,5 C 0,0 C 93 % 1018,1 hPa 0,0 l/m 2 min 0 min 169 W/m 23,0 km/h (4 Bft)
16.02.2015 09:32 0,5 C 0,0 C 93 % 1018,1 hPa 0,0 l/m 2 min 0 min 172 W/m 14,6 km/h (3 Bft)
16.02.2015 09:34 0,6 C 0,0 C 93 % 1018,3 hPa 0,0 l/m 2 min 0 min 175 W/m 18,8 km/h (3 Bft)
16.02.2015 09:36 0,7 C 0,0 C 93 % 1018,3 hPa 0,0 l/m 2 min 0 min 181 W/m 18,8 km/h (3 Bft)
16.02.2015 09:38 0,7 C 0,0 C 93 % 1018,1 hPa 0,0 l/m 2 min 0 min 183 W/m 16,7 km/h (3 Bft)
16.02.2015 09:40 0,8 C 0,0 C 93 % 1018,2 hPa 0,0 l/m 2 min 0 min 187 W/m 16,7 km/h (3 Bft)
16.02.2015 09:42 0,8 C 0,0 C 93 % 1018,2 hPa 0,0 l/m 2 min 0 min 194 W/m 20,9 km/h (4 Bft)
16.02.2015 09:44 0,9 C 0,0 C 93 % 1018,2 hPa 0,0 l/m 2 min 0 min 199 W/m 18,8 km/h (3 Bft)
16.02.2015 09:46 1,0 C 0,0 C 93 % 1018,1 hPa 0,0 l/m 2 min 0 min 203 W/m 29,3 km/h (5 Bft)
16.02.2015 09:48 1,1 C 0,0 C 92 % 1018,2 hPa 0,0 l/m 2 min 0 min 209 W/m 20,9 km/h (4 Bft)
16.02.2015 09:50 1,1 C 0,0 C 92 % 1018,1 hPa 0,0 l/m 2 min 0 min 214 W/m 18,8 km/h (3 Bft)
16.02.2015 09:52 1,2 C 0,6 C 92 % 1018,2 hPa 0,0 l/m 2 min 0 min 217 W/m 25,1 km/h (4 Bft)
16.02.2015 09:54 1,3 C 0,6 C 92 % 1018,2 hPa 0,0 l/m 2 min 0 min 221 W/m 27,2 km/h (4 Bft)
16.02.2015 09:56 1,3 C 0,6 C 92 % 1018,2 hPa 0,0 l/m 2 min 0 min 227 W/m 18,8 km/h (3 Bft)
16.02.2015 09:58 1,4 C 0,6 C 92 % 1018,2 hPa 0,0 l/m 2 min 0 min 232 W/m 18,8 km/h (3 Bft)
16.02.2015 10:00 1,5 C 0,6 C 92 % 1018,3 hPa 0,0 l/m 2 min 0 min 236 W/m 23,0 km/h (4 Bft)
16.02.2015 10:02 1,6 C 0,6 C 92 % 1018,3 hPa 0,0 l/m 2 min 0 min 238 W/m 27,2 km/h (4 Bft)
16.02.2015 10:04 1,6 C 0,6 C 92 % 1018,3 hPa 0,0 l/m 2 min 0 min 243 W/m 18,8 km/h (3 Bft)
16.02.2015 10:06 1,7 C 0,6 C 91 % 1018,3 hPa 0,0 l/m 2 min 0 min 245 W/m 20,9 km/h (4 Bft)
16.02.2015 10:08 1,8 C 0,6 C 91 % 1018,3 hPa 0,0 l/m 2 min 0 min 250 W/m 20,9 km/h (4 Bft)
16.02.2015 10:10 1,8 C 0,6 C 91 % 1018,3 hPa 0,0 l/m 2 min 0 min 253 W/m 23,0 km/h (4 Bft)
16.02.2015 10:12 1,9 C 0,6 C 91 % 1018,3 hPa 0,0 l/m 2 min 0 min 255 W/m 16,7 km/h (3 Bft)
16.02.2015 10:14 2,0 C 1,1 C 91 % 1018,4 hPa 0,0 l/m 2 min 0 min 257 W/m 25,1 km/h (4 Bft)
16.02.2015 10:16 2,1 C 1,1 C 90 % 1018,4 hPa 0,0 l/m 2 min 0 min 261 W/m 20,9 km/h (4 Bft)
16.02.2015 10:18 2,2 C 1,1 C 90 % 1018,4 hPa 0,0 l/m 2 min 0 min 264 W/m 23,0 km/h (4 Bft)
16.02.2015 10:20 2,2 C 1,1 C 90 % 1018,4 hPa 0,0 l/m 2 min 0 min 262 W/m 23,0 km/h (4 Bft)
16.02.2015 10:22 2,3 C 1,1 C 90 % 1018,4 hPa 0,0 l/m 2 min 0 min 207 W/m 12,6 km/h (3 Bft)
16.02.2015 10:24 2,3 C 1,1 C 89 % 1018,4 hPa 0,0 l/m 2 min 0 min 177 W/m 18,8 km/h (3 Bft)
16.02.2015 10:26 2,4 C 1,7 C 89 % 1018,4 hPa 0,0 l/m 2 min 0 min 197 W/m 23,0 km/h (4 Bft)
16.02.2015 10:28 2,4 C 1,7 C 89 % 1018,4 hPa 0,0 l/m 2 min 0 min 182 W/m 23,0 km/h (4 Bft)
16.02.2015 10:30 2,4 C 1,7 C 89 % 1018,4 hPa 0,0 l/m 2 min 0 min 183 W/m 27,2 km/h (4 Bft)
16.02.2015 10:32 2,4 C 1,7 C 88 % 1018,5 hPa 0,0 l/m 2 min 0 min 190 W/m 18,8 km/h (3 Bft)
16.02.2015 10:34 2,4 C 1,7 C 88 % 1018,4 hPa 0,0 l/m 2 min 0 min 187 W/m 23,0 km/h (4 Bft)
16.02.2015 10:36 2,4 C 1,7 C 88 % 1018,4 hPa 0,0 l/m 2 min 0 min 192 W/m 18,8 km/h (3 Bft)
16.02.2015 10:38 2,5 C 1,7 C 88 % 1018,5 hPa 0,0 l/m 2 min 0 min 180 W/m 16,7 km/h (3 Bft)
16.02.2015 10:40 2,5 C 1,7 C 88 % 1018,5 hPa 0,0 l/m 0 min 0 min 169 W/m 20,9 km/h (4 Bft)
16.02.2015 10:42 2,5 C 1,7 C 88 % 1018,5 hPa 0,0 l/m 2 min 0 min 192 W/m 18,8 km/h (3 Bft)
16.02.2015 10:44 2,6 C 2,2 C 88 % 1018,6 hPa 0,0 l/m 2 min 0 min 198 W/m 20,9 km/h (4 Bft)
16.02.2015 10:46 2,6 C 2,2 C 88 % 1018,5 hPa 0,0 l/m 2 min 0 min 188 W/m 18,8 km/h (3 Bft)
16.02.2015 10:48 2,6 C 2,2 C 87 % 1018,5 hPa 0,0 l/m 2 min 0 min 188 W/m 18,8 km/h (3 Bft)
16.02.2015 10:50 2,6 C 2,2 C 88 % 1018,6 hPa 0,0 l/m 2 min 0 min 216 W/m 18,8 km/h (3 Bft)
16.02.2015 10:52 2,7 C 2,2 C 88 % 1018,6 hPa 0,0 l/m 2 min 0 min 193 W/m 14,6 km/h (3 Bft)
16.02.2015 10:54 2,7 C 2,2 C 87 % 1018,6 hPa 0,0 l/m 2 min 0 min 201 W/m 20,9 km/h (4 Bft)
16.02.2015 10:56 2,7 C 2,2 C 87 % 1018,6 hPa 0,0 l/m 2 min 0 min 197 W/m 18,8 km/h (3 Bft)
16.02.2015 10:58 2,7 C 2,2 C 87 % 1018,6 hPa 0,0 l/m 0 min 0 min 186 W/m 23,0 km/h (4 Bft)
16.02.2015 11:00 2,8 C 2,2 C 87 % 1018,7 hPa 0,0 l/m 2 min 0 min 235 W/m 29,3 km/h (5 Bft)
16.02.2015 11:02 2,8 C 2,2 C 87 % 1018,6 hPa 0,0 l/m 2 min 0 min 265 W/m 27,2 km/h (4 Bft)
16.02.2015 11:04 2,8 C 2,2 C 87 % 1018,7 hPa 0,0 l/m 2 min 0 min 234 W/m 25,1 km/h (4 Bft)
16.02.2015 11:06 2,8 C 2,2 C 87 % 1018,7 hPa 0,0 l/m 2 min 0 min 232 W/m 25,1 km/h (4 Bft)
16.02.2015 11:08 2,9 C 2,2 C 87 % 1018,7 hPa 0,0 l/m 2 min 0 min 234 W/m 20,9 km/h (4 Bft)
16.02.2015 11:10 2,9 C 2,2 C 87 % 1018,7 hPa 0,0 l/m 2 min 0 min 231 W/m 20,9 km/h (4 Bft)
16.02.2015 11:12 2,9 C 2,2 C 86 % 1018,7 hPa 0,0 l/m 2 min 0 min 244 W/m 25,1 km/h (4 Bft)
16.02.2015 11:14 2,9 C 2,8 C 86 % 1018,7 hPa 0,0 l/m 2 min 0 min 287 W/m 20,9 km/h (4 Bft)
16.02.2015 11:16 3,0 C 2,8 C 86 % 1018,7 hPa 0,0 l/m 2 min 0 min 298 W/m 18,8 km/h (3 Bft)
16.02.2015 11:18 3,0 C 2,8 C 86 % 1018,7 hPa 0,0 l/m 2 min 0 min 257 W/m 23,0 km/h (4 Bft)
16.02.2015 11:20 3,1 C 2,8 C 86 % 1018,7 hPa 0,0 l/m 2 min 0 min 280 W/m 25,1 km/h (4 Bft)
16.02.2015 11:22 3,1 C 2,8 C 86 % 1018,7 hPa 0,0 l/m 2 min 0 min 312 W/m 20,9 km/h (4 Bft)
16.02.2015 11:24 3,2 C 2,8 C 86 % 1018,7 hPa 0,0 l/m 2 min 0 min 253 W/m 23,0 km/h (4 Bft)
16.02.2015 11:26 3,2 C 2,8 C 86 % 1018,7 hPa 0,0 l/m 2 min 0 min 281 W/m 18,8 km/h (3 Bft)
16.02.2015 11:28 3,3 C 2,8 C 86 % 1018,7 hPa 0,0 l/m 2 min 0 min 358 W/m 16,7 km/h (3 Bft)
16.02.2015 11:30 3,4 C 2,8 C 86 % 1018,8 hPa 0,0 l/m 2 min 0 min 381 W/m 23,0 km/h (4 Bft)
16.02.2015 11:32 3,4 C 2,8 C 86 % 1018,7 hPa 0,0 l/m 2 min 0 min 371 W/m 20,9 km/h (4 Bft)
16.02.2015 11:34 3,5 C 2,8 C 85 % 1018,9 hPa 0,0 l/m 2 min 0 min 375 W/m 18,8 km/h (3 Bft)
16.02.2015 11:36 3,6 C 2,8 C 85 % 1018,8 hPa 0,0 l/m 2 min 0 min 390 W/m 18,8 km/h (3 Bft)
16.02.2015 11:38 3,7 C 3,3 C 85 % 1018,7 hPa 0,0 l/m 2 min 0 min 379 W/m 16,7 km/h (3 Bft)
16.02.2015 11:40 3,8 C 3,3 C 85 % 1018,8 hPa 0,0 l/m 2 min 0 min 394 W/m 27,2 km/h (4 Bft)
16.02.2015 11:42 3,9 C 2,8 C 85 % 1018,8 hPa 0,0 l/m 2 min 0 min 373 W/m 23,0 km/h (4 Bft)
16.02.2015 11:44 3,9 C 3,3 C 85 % 1018,8 hPa 0,0 l/m 2 min 0 min 390 W/m 27,2 km/h (4 Bft)
16.02.2015 11:46 4,1 C 3,3 C 85 % 1018,8 hPa 0,0 l/m 2 min 0 min 396 W/m 23,0 km/h (4 Bft)
16.02.2015 11:48 4,2 C 3,3 C 84 % 1018,8 hPa 0,0 l/m 2 min 0 min 386 W/m 18,8 km/h (3 Bft)
16.02.2015 11:50 4,2 C 3,3 C 84 % 1018,8 hPa 0,0 l/m 2 min 0 min 392 W/m 20,9 km/h (4 Bft)
16.02.2015 11:52 4,3 C 3,3 C 84 % 1018,7 hPa 0,0 l/m 2 min 0 min 390 W/m 25,1 km/h (4 Bft)
16.02.2015 11:54 4,4 C 3,3 C 84 % 1018,8 hPa 0,0 l/m 2 min 0 min 391 W/m 23,0 km/h (4 Bft)
16.02.2015 11:56 4,4 C 3,3 C 83 % 1018,8 hPa 0,0 l/m 2 min 0 min 393 W/m 23,0 km/h (4 Bft)
16.02.2015 11:58 4,5 C 3,3 C 83 % 1018,7 hPa 0,0 l/m 2 min 0 min 392 W/m 23,0 km/h (4 Bft)
16.02.2015 12:00 4,6 C 3,3 C 83 % 1018,7 hPa 0,0 l/m 2 min 0 min 397 W/m 23,0 km/h (4 Bft)
16.02.2015 12:02 4,6 C 3,3 C 82 % 1018,7 hPa 0,0 l/m 2 min 0 min 406 W/m 27,2 km/h (4 Bft)
16.02.2015 12:06 4,7 C 3,3 C 82 % 1018,8 hPa 0,0 l/m 2 min 0 min 403 W/m 18,8 km/h (3 Bft)
16.02.2015 12:08 4,8 C 3,9 C 82 % 1018,7 hPa 0,0 l/m 2 min 0 min 407 W/m 23,0 km/h (4 Bft)
16.02.2015 12:10 4,9 C 3,9 C 81 % 1018,7 hPa 0,0 l/m 2 min 0 min 405 W/m 20,9 km/h (4 Bft)
16.02.2015 12:12 4,9 C 3,9 C 81 % 1018,7 hPa 0,0 l/m 2 min 0 min 416 W/m 16,7 km/h (3 Bft)
16.02.2015 12:14 5,0 C 3,9 C 81 % 1018,7 hPa 0,0 l/m 2 min 0 min 410 W/m 23,0 km/h (4 Bft)
16.02.2015 12:16 5,1 C 3,9 C 81 % 1018,7 hPa 0,0 l/m 2 min 0 min 411 W/m 25,1 km/h (4 Bft)
16.02.2015 12:18 5,1 C 3,9 C 81 % 1018,7 hPa 0,0 l/m 2 min 0 min 413 W/m 18,8 km/h (3 Bft)
16.02.2015 12:20 5,2 C 3,9 C 80 % 1018,7 hPa 0,0 l/m 2 min 0 min 407 W/m 18,8 km/h (3 Bft)
16.02.2015 12:22 5,3 C 4,4 C 81 % 1018,7 hPa 0,0 l/m 2 min 0 min 413 W/m 20,9 km/h (4 Bft)
16.02.2015 12:24 5,3 C 3,9 C 80 % 1018,7 hPa 0,0 l/m 2 min 0 min 412 W/m 27,2 km/h (4 Bft)
16.02.2015 12:26 5,4 C 3,9 C 80 % 1018,7 hPa 0,0 l/m 2 min 0 min 412 W/m 20,9 km/h (4 Bft)
16.02.2015 12:28 5,4 C 4,4 C 80 % 1018,7 hPa 0,0 l/m 2 min 0 min 414 W/m 23,0 km/h (4 Bft)
16.02.2015 12:30 5,5 C 4,4 C 80 % 1018,7 hPa 0,0 l/m 2 min 0 min 414 W/m 27,2 km/h (4 Bft)
16.02.2015 12:32 5,5 C 4,4 C 79 % 1018,7 hPa 0,0 l/m 2 min 0 min 407 W/m 20,9 km/h (4 Bft)
16.02.2015 12:34 5,6 C 4,4 C 79 % 1018,7 hPa 0,0 l/m 2 min 0 min 412 W/m 20,9 km/h (4 Bft)
16.02.2015 12:36 5,6 C 4,4 C 79 % 1018,6 hPa 0,0 l/m 2 min 0 min 418 W/m 20,9 km/h (4 Bft)
16.02.2015 12:38 5,7 C 4,4 C 79 % 1018,6 hPa 0,0 l/m 2 min 0 min 410 W/m 18,8 km/h (3 Bft)
16.02.2015 12:40 5,7 C 4,4 C 79 % 1018,5 hPa 0,0 l/m 2 min 0 min 416 W/m 20,9 km/h (4 Bft)
16.02.2015 12:42 5,7 C 4,4 C 79 % 1018,6 hPa 0,0 l/m 2 min 0 min 416 W/m 23,0 km/h (4 Bft)
16.02.2015 12:44 5,8 C 4,4 C 79 % 1018,6 hPa 0,0 l/m 2 min 0 min 413 W/m 16,7 km/h (3 Bft)
16.02.2015 12:46 5,9 C 4,4 C 79 % 1018,6 hPa 0,0 l/m 2 min 0 min 419 W/m 29,3 km/h (5 Bft)
16.02.2015 12:48 5,9 C 4,4 C 78 % 1018,5 hPa 0,0 l/m 2 min 0 min 417 W/m 23,0 km/h (4 Bft)
16.02.2015 12:50 6,0 C 4,4 C 78 % 1018,5 hPa 0,0 l/m 2 min 0 min 422 W/m 20,9 km/h (4 Bft)
16.02.2015 12:52 6,1 C 4,4 C 78 % 1018,5 hPa 0,0 l/m 2 min 0 min 412 W/m 18,8 km/h (3 Bft)
16.02.2015 12:54 6,1 C 4,4 C 78 % 1018,5 hPa 0,0 l/m 2 min 0 min 416 W/m 25,1 km/h (4 Bft)
16.02.2015 12:56 6,2 C 5,0 C 78 % 1018,5 hPa 0,0 l/m 2 min 0 min 413 W/m 33,5 km/h (5 Bft)
16.02.2015 12:58 6,2 C 4,4 C 77 % 1018,5 hPa 0,0 l/m 2 min 0 min 412 W/m 25,1 km/h (4 Bft)
16.02.2015 13:00 6,2 C 4,4 C 77 % 1018,4 hPa 0,0 l/m 2 min 0 min 407 W/m 27,2 km/h (4 Bft)
16.02.2015 13:02 6,2 C 4,4 C 77 % 1018,4 hPa 0,0 l/m 2 min 0 min 409 W/m 14,6 km/h (3 Bft)
16.02.2015 13:04 6,2 C 4,4 C 77 % 1018,3 hPa 0,0 l/m 2 min 0 min 411 W/m 20,9 km/h (4 Bft)
16.02.2015 13:06 6,2 C 4,4 C 77 % 1018,5 hPa 0,0 l/m 2 min 0 min 415 W/m 20,9 km/h (4 Bft)
16.02.2015 13:08 6,2 C 4,4 C 77 % 1018,5 hPa 0,0 l/m 2 min 0 min 411 W/m 25,1 km/h (4 Bft)
16.02.2015 13:10 6,2 C 4,4 C 77 % 1018,4 hPa 0,0 l/m 2 min 0 min 411 W/m 18,8 km/h (3 Bft)
16.02.2015 13:12 6,3 C 5,0 C 77 % 1018,3 hPa 0,0 l/m 2 min 0 min 416 W/m 25,1 km/h (4 Bft)
16.02.2015 13:14 6,3 C 5,0 C 77 % 1018,3 hPa 0,0 l/m 2 min 0 min 414 W/m 29,3 km/h (5 Bft)
16.02.2015 13:16 6,4 C 5,0 C 76 % 1018,4 hPa 0,0 l/m 2 min 0 min 410 W/m 20,9 km/h (4 Bft)
16.02.2015 13:18 6,4 C 5,0 C 76 % 1018,4 hPa 0,0 l/m 2 min 0 min 410 W/m 18,8 km/h (3 Bft)
16.02.2015 13:20 6,4 C 5,0 C 76 % 1018,3 hPa 0,0 l/m 2 min 0 min 405 W/m 20,9 km/h (4 Bft)
16.02.2015 13:22 6,4 C 5,0 C 76 % 1018,4 hPa 0,0 l/m 2 min 0 min 404 W/m 20,9 km/h (4 Bft)
16.02.2015 13:24 6,4 C 5,0 C 76 % 1018,2 hPa 0,0 l/m 2 min 0 min 407 W/m 14,6 km/h (3 Bft)
16.02.2015 13:26 6,4 C 5,0 C 76 % 1018,3 hPa 0,0 l/m 2 min 0 min 406 W/m 12,6 km/h (3 Bft)
16.02.2015 13:28 6,4 C 5,0 C 76 % 1018,3 hPa 0,0 l/m 2 min 0 min 395 W/m 23,0 km/h (4 Bft)
16.02.2015 13:30 6,5 C 5,0 C 76 % 1018,2 hPa 0,0 l/m 2 min 0 min 393 W/m 16,7 km/h (3 Bft)
16.02.2015 13:32 6,5 C 5,0 C 76 % 1018,2 hPa 0,0 l/m 2 min 0 min 389 W/m 25,1 km/h (4 Bft)
16.02.2015 13:34 6,6 C 5,0 C 75 % 1018,3 hPa 0,0 l/m 2 min 0 min 395 W/m 29,3 km/h (5 Bft)
16.02.2015 13:36 6,5 C 5,0 C 75 % 1018,2 hPa 0,0 l/m 2 min 0 min 395 W/m 25,1 km/h (4 Bft)
16.02.2015 13:38 6,6 C 5,0 C 75 % 1018,2 hPa 0,0 l/m 2 min 0 min 395 W/m 18,8 km/h (3 Bft)
16.02.2015 13:40 6,6 C 5,0 C 75 % 1018,2 hPa 0,0 l/m 2 min 0 min 397 W/m 23,0 km/h (4 Bft)
16.02.2015 13:42 6,6 C 5,0 C 75 % 1018,2 hPa 0,0 l/m 2 min 0 min 396 W/m 18,8 km/h (3 Bft)
16.02.2015 13:44 6,6 C 5,0 C 75 % 1018,2 hPa 0,0 l/m 2 min 0 min 391 W/m 16,7 km/h (3 Bft)
16.02.2015 13:46 6,6 C 5,0 C 75 % 1018,1 hPa 0,0 l/m 2 min 0 min 391 W/m 20,9 km/h (4 Bft)
16.02.2015 13:48 6,7 C 5,0 C 75 % 1018,1 hPa 0,0 l/m 2 min 0 min 395 W/m 18,8 km/h (3 Bft)
16.02.2015 13:50 6,7 C 5,0 C 75 % 1018,2 hPa 0,0 l/m 2 min 0 min 388 W/m 25,1 km/h (4 Bft)
16.02.2015 13:52 6,7 C 5,0 C 75 % 1018,1 hPa 0,0 l/m 2 min 0 min 384 W/m 23,0 km/h (4 Bft)
16.02.2015 13:54 6,8 C 5,0 C 75 % 1018,1 hPa 0,0 l/m 2 min 0 min 374 W/m 16,7 km/h (3 Bft)
16.02.2015 13:56 6,8 C 5,6 C 75 % 1018,2 hPa 0,0 l/m 2 min 0 min 379 W/m 18,8 km/h (3 Bft)
16.02.2015 13:58 6,8 C 5,6 C 75 % 1018,2 hPa 0,0 l/m 2 min 0 min 376 W/m 16,7 km/h (3 Bft)
16.02.2015 14:00 6,8 C 5,0 C 75 % 1018,1 hPa 0,0 l/m 2 min 0 min 377 W/m 27,2 km/h (4 Bft)
16.02.2015 14:02 6,8 C 5,0 C 75 % 1018,0 hPa 0,0 l/m 2 min 0 min 374 W/m 23,0 km/h (4 Bft)
16.02.2015 14:04 6,9 C 5,0 C 75 % 1017,9 hPa 0,0 l/m 2 min 0 min 374 W/m 14,6 km/h (3 Bft)
16.02.2015 14:06 6,9 C 5,0 C 75 % 1017,9 hPa 0,0 l/m 2 min 0 min 371 W/m 29,3 km/h (5 Bft)
16.02.2015 14:08 6,9 C 5,6 C 75 % 1018,0 hPa 0,0 l/m 2 min 0 min 362 W/m 20,9 km/h (4 Bft)
16.02.2015 14:10 7,0 C 5,6 C 74 % 1018,0 hPa 0,0 l/m 2 min 0 min 361 W/m 16,7 km/h (3 Bft)
16.02.2015 14:12 7,0 C 5,6 C 74 % 1018,0 hPa 0,0 l/m 2 min 0 min 360 W/m 16,7 km/h (3 Bft)
16.02.2015 14:14 7,0 C 5,6 C 74 % 1018,0 hPa 0,0 l/m 2 min 0 min 355 W/m 25,1 km/h (4 Bft)
16.02.2015 14:16 7,1 C 5,6 C 74 % 1017,9 hPa 0,0 l/m 2 min 0 min 351 W/m 23,0 km/h (4 Bft)
16.02.2015 14:18 7,1 C 5,6 C 74 % 1018,0 hPa 0,0 l/m 2 min 0 min 351 W/m 18,8 km/h (3 Bft)
16.02.2015 14:20 7,1 C 5,6 C 74 % 1018,0 hPa 0,0 l/m 2 min 0 min 350 W/m 25,1 km/h (4 Bft)
16.02.2015 14:22 7,1 C 5,6 C 74 % 1017,9 hPa 0,0 l/m 2 min 0 min 349 W/m 27,2 km/h (4 Bft)
16.02.2015 14:24 7,1 C 5,6 C 74 % 1017,9 hPa 0,0 l/m 2 min 0 min 343 W/m 20,9 km/h (4 Bft)
16.02.2015 14:26 7,2 C 5,6 C 74 % 1017,9 hPa 0,0 l/m 2 min 0 min 336 W/m 23,0 km/h (4 Bft)
16.02.2015 14:28 7,2 C 5,6 C 73 % 1017,9 hPa 0,0 l/m 2 min 0 min 334 W/m 23,0 km/h (4 Bft)
16.02.2015 14:30 7,1 C 5,6 C 73 % 1017,9 hPa 0,0 l/m 2 min 0 min 338 W/m 18,8 km/h (3 Bft)
16.02.2015 14:32 7,2 C 5,6 C 74 % 1017,9 hPa 0,0 l/m 2 min 0 min 332 W/m 20,9 km/h (4 Bft)
16.02.2015 14:34 7,1 C 5,6 C 74 % 1017,9 hPa 0,0 l/m 2 min 0 min 327 W/m 23,0 km/h (4 Bft)
16.02.2015 14:36 7,1 C 5,6 C 74 % 1018,0 hPa 0,0 l/m 2 min 0 min 322 W/m 18,8 km/h (3 Bft)
16.02.2015 14:38 7,1 C 5,6 C 74 % 1018,0 hPa 0,0 l/m 2 min 0 min 319 W/m 20,9 km/h (4 Bft)
16.02.2015 14:40 7,1 C 5,6 C 73 % 1017,9 hPa 0,0 l/m 2 min 0 min 321 W/m 20,9 km/h (4 Bft)
16.02.2015 14:42 7,1 C 5,6 C 73 % 1017,9 hPa 0,0 l/m 2 min 0 min 314 W/m 14,6 km/h (3 Bft)
16.02.2015 14:44 7,1 C 5,6 C 74 % 1017,9 hPa 0,0 l/m 2 min 0 min 309 W/m 18,8 km/h (3 Bft)
16.02.2015 14:46 7,1 C 5,6 C 74 % 1017,9 hPa 0,0 l/m 2 min 0 min 305 W/m 25,1 km/h (4 Bft)
16.02.2015 14:48 7,1 C 5,6 C 74 % 1017,9 hPa 0,0 l/m 2 min 0 min 304 W/m 20,9 km/h (4 Bft)
16.02.2015 14:50 7,2 C 5,6 C 74 % 1017,9 hPa 0,0 l/m 2 min 0 min 296 W/m 16,7 km/h (3 Bft)
16.02.2015 14:52 7,2 C 5,6 C 74 % 1017,9 hPa 0,0 l/m 2 min 0 min 296 W/m 14,6 km/h (3 Bft)
16.02.2015 14:54 7,2 C 5,6 C 74 % 1017,8 hPa 0,0 l/m 2 min 0 min 295 W/m 16,7 km/h (3 Bft)
16.02.2015 14:56 7,2 C 5,6 C 74 % 1017,8 hPa 0,0 l/m 2 min 0 min 284 W/m 18,8 km/h (3 Bft)
16.02.2015 14:58 7,2 C 5,6 C 73 % 1017,7 hPa 0,0 l/m 2 min 0 min 281 W/m 20,9 km/h (4 Bft)
16.02.2015 15:00 7,2 C 5,6 C 73 % 1017,6 hPa 0,0 l/m 2 min 0 min 280 W/m 14,6 km/h (3 Bft)
16.02.2015 15:02 7,2 C 5,6 C 73 % 1017,6 hPa 0,0 l/m 2 min 0 min 280 W/m 25,1 km/h (4 Bft)
16.02.2015 15:04 7,3 C 5,6 C 73 % 1017,6 hPa 0,0 l/m 2 min 0 min 276 W/m 20,9 km/h (4 Bft)
16.02.2015 15:06 7,2 C 5,6 C 73 % 1017,6 hPa 0,0 l/m 2 min 0 min 271 W/m 20,9 km/h (4 Bft)
16.02.2015 15:08 7,2 C 5,6 C 73 % 1017,6 hPa 0,0 l/m 2 min 0 min 267 W/m 14,6 km/h (3 Bft)
16.02.2015 15:10 7,2 C 5,6 C 73 % 1017,7 hPa 0,0 l/m 2 min 0 min 266 W/m 14,6 km/h (3 Bft)
16.02.2015 15:12 7,2 C 5,6 C 73 % 1017,6 hPa 0,0 l/m 2 min 0 min 262 W/m 18,8 km/h (3 Bft)
16.02.2015 15:14 7,3 C 5,6 C 73 % 1017,7 hPa 0,0 l/m 2 min 0 min 261 W/m 18,8 km/h (3 Bft)
16.02.2015 15:16 7,3 C 5,6 C 73 % 1017,6 hPa 0,0 l/m 2 min 0 min 262 W/m 20,9 km/h (4 Bft)
16.02.2015 15:18 7,3 C 5,6 C 73 % 1017,7 hPa 0,0 l/m 2 min 0 min 258 W/m 12,6 km/h (3 Bft)
16.02.2015 15:20 7,3 C 5,6 C 73 % 1017,6 hPa 0,0 l/m 2 min 0 min 252 W/m 18,8 km/h (3 Bft)
16.02.2015 15:22 7,3 C 5,6 C 73 % 1017,6 hPa 0,0 l/m 2 min 0 min 249 W/m 18,8 km/h (3 Bft)
16.02.2015 15:24 7,3 C 5,6 C 73 % 1017,6 hPa 0,0 l/m 2 min 0 min 243 W/m 23,0 km/h (4 Bft)
16.02.2015 15:26 7,3 C 5,6 C 73 % 1017,6 hPa 0,0 l/m 2 min 0 min 235 W/m 14,6 km/h (3 Bft)
16.02.2015 15:28 7,3 C 5,6 C 73 % 1017,6 hPa 0,0 l/m 2 min 0 min 228 W/m 8,4 km/h (2 Bft)
16.02.2015 15:30 7,3 C 5,6 C 73 % 1017,6 hPa 0,0 l/m 2 min 0 min 223 W/m 16,7 km/h (3 Bft)
16.02.2015 15:32 7,4 C 5,6 C 73 % 1017,6 hPa 0,0 l/m 2 min 0 min 220 W/m 14,6 km/h (3 Bft)
16.02.2015 15:34 7,3 C 5,6 C 73 % 1017,6 hPa 0,0 l/m 2 min 0 min 218 W/m 16,7 km/h (3 Bft)
16.02.2015 15:36 7,4 C 5,6 C 73 % 1017,6 hPa 0,0 l/m 2 min 0 min 213 W/m 12,6 km/h (3 Bft)
16.02.2015 15:38 7,4 C 5,6 C 73 % 1017,6 hPa 0,0 l/m 2 min 0 min 208 W/m 14,6 km/h (3 Bft)
16.02.2015 15:40 7,4 C 5,6 C 73 % 1017,6 hPa 0,0 l/m 2 min 0 min 204 W/m 16,7 km/h (3 Bft)
16.02.2015 15:42 7,4 C 5,6 C 73 % 1017,6 hPa 0,0 l/m 2 min 0 min 200 W/m 14,6 km/h (3 Bft)
16.02.2015 15:44 7,4 C 5,6 C 73 % 1017,5 hPa 0,0 l/m 2 min 0 min 195 W/m 12,6 km/h (3 Bft)
16.02.2015 15:46 7,4 C 5,6 C 73 % 1017,5 hPa 0,0 l/m 2 min 0 min 189 W/m 16,7 km/h (3 Bft)
16.02.2015 15:48 7,4 C 5,0 C 73 % 1017,5 hPa 0,0 l/m 2 min 0 min 184 W/m 18,8 km/h (3 Bft)
16.02.2015 15:50 7,4 C 5,0 C 72 % 1017,5 hPa 0,0 l/m 2 min 0 min 181 W/m 16,7 km/h (3 Bft)
16.02.2015 15:52 7,4 C 5,0 C 73 % 1017,5 hPa 0,0 l/m 2 min 0 min 174 W/m 12,6 km/h (3 Bft)
16.02.2015 15:54 7,4 C 5,0 C 73 % 1017,5 hPa 0,0 l/m 2 min 0 min 170 W/m 12,6 km/h (3 Bft)
16.02.2015 15:56 7,3 C 5,0 C 73 % 1017,5 hPa 0,0 l/m 2 min 0 min 164 W/m 14,6 km/h (3 Bft)
16.02.2015 15:58 7,3 C 5,0 C 73 % 1017,5 hPa 0,0 l/m 2 min 0 min 161 W/m 16,7 km/h (3 Bft)
16.02.2015 16:00 7,3 C 5,0 C 73 % 1017,5 hPa 0,0 l/m 2 min 0 min 156 W/m 10,5 km/h (2 Bft)
16.02.2015 16:02 7,3 C 5,0 C 73 % 1017,5 hPa 0,0 l/m 2 min 0 min 152 W/m 12,6 km/h (3 Bft)
16.02.2015 16:04 7,3 C 5,0 C 73 % 1017,4 hPa 0,0 l/m 2 min 0 min 149 W/m 10,5 km/h (2 Bft)
16.02.2015 16:06 7,3 C 5,0 C 73 % 1017,4 hPa 0,0 l/m 2 min 0 min 146 W/m 10,5 km/h (2 Bft)
16.02.2015 16:08 7,3 C 5,0 C 73 % 1017,4 hPa 0,0 l/m 2 min 0 min 141 W/m 12,6 km/h (3 Bft)
16.02.2015 16:10 7,2 C 5,0 C 73 % 1017,4 hPa 0,0 l/m 2 min 0 min 136 W/m 16,7 km/h (3 Bft)
16.02.2015 16:12 7,2 C 5,0 C 73 % 1017,5 hPa 0,0 l/m 2 min 0 min 132 W/m 14,6 km/h (3 Bft)
16.02.2015 16:14 7,2 C 5,0 C 73 % 1017,4 hPa 0,0 l/m 2 min 0 min 128 W/m 12,6 km/h (3 Bft)
16.02.2015 16:16 7,2 C 4,4 C 73 % 1017,4 hPa 0,0 l/m 2 min 0 min 124 W/m 16,7 km/h (3 Bft)
16.02.2015 16:18 7,1 C 4,4 C 73 % 1017,5 hPa 0,0 l/m 2 min 0 min 118 W/m 18,8 km/h (3 Bft)
16.02.2015 16:20 7,1 C 4,4 C 73 % 1017,5 hPa 0,0 l/m 2 min 0 min 114 W/m 16,7 km/h (3 Bft)
16.02.2015 16:22 7,0 C 4,4 C 73 % 1017,5 hPa 0,0 l/m 2 min 0 min 111 W/m 12,6 km/h (3 Bft)
16.02.2015 16:24 6,9 C 4,4 C 73 % 1017,6 hPa 0,0 l/m 2 min 0 min 107 W/m 12,6 km/h (3 Bft)
16.02.2015 16:26 6,9 C 4,4 C 73 % 1017,6 hPa 0,0 l/m 2 min 0 min 103 W/m 8,4 km/h (2 Bft)
16.02.2015 16:28 6,9 C 4,4 C 73 % 1017,5 hPa 0,0 l/m 2 min 0 min 99 W/m 12,6 km/h (3 Bft)
16.02.2015 16:30 6,8 C 4,4 C 74 % 1017,5 hPa 0,0 l/m 2 min 0 min 96 W/m 16,7 km/h (3 Bft)
16.02.2015 16:32 6,8 C 4,4 C 74 % 1017,5 hPa 0,0 l/m 2 min 0 min 91 W/m 12,6 km/h (3 Bft)
16.02.2015 16:34 6,7 C 4,4 C 74 % 1017,5 hPa 0,0 l/m 2 min 0 min 87 W/m 14,6 km/h (3 Bft)
16.02.2015 16:36 6,6 C 3,9 C 74 % 1017,5 hPa 0,0 l/m 2 min 0 min 84 W/m 8,4 km/h (2 Bft)
16.02.2015 16:38 6,6 C 3,9 C 74 % 1017,5 hPa 0,0 l/m 0 min 0 min 81 W/m 14,6 km/h (3 Bft)
16.02.2015 16:40 6,5 C 4,4 C 74 % 1017,5 hPa 0,0 l/m 0 min 0 min 77 W/m 16,7 km/h (3 Bft)
16.02.2015 16:42 6,4 C 3,9 C 74 % 1017,6 hPa 0,0 l/m 0 min 0 min 74 W/m 10,5 km/h (2 Bft)
16.02.2015 16:44 6,4 C 3,9 C 74 % 1017,5 hPa 0,0 l/m 0 min 0 min 71 W/m 16,7 km/h (3 Bft)
16.02.2015 16:46 6,4 C 3,9 C 75 % 1017,6 hPa 0,0 l/m 0 min 0 min 68 W/m 14,6 km/h (3 Bft)
16.02.2015 16:48 6,3 C 3,9 C 75 % 1017,6 hPa 0,0 l/m 0 min 0 min 63 W/m 14,6 km/h (3 Bft)
16.02.2015 16:50 6,2 C 3,9 C 75 % 1017,7 hPa 0,0 l/m 0 min 0 min 61 W/m 14,6 km/h (3 Bft)
16.02.2015 16:52 6,2 C 3,9 C 75 % 1017,7 hPa 0,0 l/m 0 min 0 min 58 W/m 14,6 km/h (3 Bft)
16.02.2015 16:54 6,2 C 3,9 C 75 % 1017,7 hPa 0,0 l/m 0 min 0 min 55 W/m 8,4 km/h (2 Bft)
16.02.2015 16:56 6,1 C 3,9 C 75 % 1017,8 hPa 0,0 l/m 0 min 0 min 52 W/m 16,7 km/h (3 Bft)
16.02.2015 16:58 6,1 C 3,9 C 75 % 1017,7 hPa 0,0 l/m 0 min 0 min 50 W/m 8,4 km/h (2 Bft)
16.02.2015 17:00 6,0 C 3,9 C 75 % 1017,8 hPa 0,0 l/m 0 min 0 min 48 W/m 10,5 km/h (2 Bft)
16.02.2015 17:02 5,9 C 3,9 C 76 % 1017,8 hPa 0,0 l/m 0 min 0 min 46 W/m 14,6 km/h (3 Bft)
16.02.2015 17:04 5,9 C 3,9 C 76 % 1017,8 hPa 0,0 l/m 0 min 0 min 44 W/m 12,6 km/h (3 Bft)
16.02.2015 17:06 5,9 C 3,3 C 76 % 1017,9 hPa 0,0 l/m 0 min 0 min 41 W/m 14,6 km/h (3 Bft)
16.02.2015 17:08 5,8 C 3,3 C 76 % 1017,9 hPa 0,0 l/m 0 min 0 min 40 W/m 12,6 km/h (3 Bft)
16.02.2015 17:10 5,8 C 3,3 C 76 % 1017,9 hPa 0,0 l/m 0 min 0 min 39 W/m 16,7 km/h (3 Bft)
16.02.2015 17:12 5,7 C 3,3 C 76 % 1017,9 hPa 0,0 l/m 0 min 0 min 36 W/m 10,5 km/h (2 Bft)
16.02.2015 17:14 5,7 C 3,3 C 76 % 1018,0 hPa 0,0 l/m 0 min 0 min 35 W/m 8,4 km/h (2 Bft)
16.02.2015 17:16 5,7 C 3,3 C 76 % 1018,0 hPa 0,0 l/m 0 min 0 min 33 W/m 10,5 km/h (2 Bft)
16.02.2015 17:18 5,6 C 3,3 C 77 % 1018,0 hPa 0,0 l/m 0 min 0 min 31 W/m 12,6 km/h (3 Bft)
16.02.2015 17:20 5,6 C 2,8 C 77 % 1018,0 hPa 0,0 l/m 0 min 0 min 29 W/m 8,4 km/h (2 Bft)
16.02.2015 17:22 5,6 C 2,8 C 77 % 1018,1 hPa 0,0 l/m 0 min 0 min 27 W/m 6,3 km/h (2 Bft)
16.02.2015 17:24 5,5 C 2,8 C 77 % 1018,1 hPa 0,0 l/m 0 min 0 min 25 W/m 12,6 km/h (3 Bft)
16.02.2015 17:26 5,4 C 2,8 C 77 % 1018,2 hPa 0,0 l/m 0 min 0 min 22 W/m 10,5 km/h (2 Bft)
16.02.2015 17:28 5,4 C 2,8 C 77 % 1018,2 hPa 0,0 l/m 0 min 0 min 20 W/m 10,5 km/h (2 Bft)
16.02.2015 17:30 5,4 C 2,8 C 78 % 1018,2 hPa 0,0 l/m 0 min 0 min 16 W/m 10,5 km/h (2 Bft)
16.02.2015 17:32 5,4 C 2,8 C 78 % 1018,2 hPa 0,0 l/m 0 min 0 min 14 W/m 8,4 km/h (2 Bft)
16.02.2015 17:34 5,3 C 2,8 C 78 % 1018,2 hPa 0,0 l/m 0 min 0 min 14 W/m 8,4 km/h (2 Bft)
16.02.2015 17:36 5,3 C 2,8 C 78 % 1018,2 hPa 0,0 l/m 2 min 0 min 12 W/m 6,3 km/h (2 Bft)
16.02.2015 17:38 5,2 C 2,2 C 78 % 1018,2 hPa 0,0 l/m 2 min 0 min 12 W/m 6,3 km/h (2 Bft)
16.02.2015 17:40 5,2 C 2,2 C 78 % 1018,3 hPa 0,0 l/m 0 min 0 min 11 W/m 8,4 km/h (2 Bft)
16.02.2015 17:42 5,2 C 2,2 C 78 % 1018,3 hPa 0,0 l/m 0 min 0 min 10 W/m 8,4 km/h (2 Bft)
16.02.2015 17:44 5,1 C 2,2 C 78 % 1018,3 hPa 0,0 l/m 0 min 0 min 9 W/m 6,3 km/h (2 Bft)
16.02.2015 17:46 5,1 C 2,2 C 78 % 1018,4 hPa 0,0 l/m 0 min 0 min 9 W/m 10,5 km/h (2 Bft)
16.02.2015 17:48 5,1 C 2,2 C 78 % 1018,4 hPa 0,0 l/m 0 min 0 min 7 W/m 10,5 km/h (2 Bft)
16.02.2015 17:50 5,0 C 2,2 C 78 % 1018,4 hPa 0,0 l/m 0 min 0 min 6 W/m 10,5 km/h (2 Bft)
16.02.2015 17:52 4,9 C 2,2 C 78 % 1018,4 hPa 0,0 l/m 0 min 0 min 5 W/m 8,4 km/h (2 Bft)
16.02.2015 17:54 4,9 C 1,7 C 78 % 1018,5 hPa 0,0 l/m 0 min 0 min 5 W/m 8,4 km/h (2 Bft)
16.02.2015 17:56 4,9 C 1,7 C 78 % 1018,5 hPa 0,0 l/m 0 min 0 min 2 W/m 6,3 km/h (2 Bft)
16.02.2015 17:58 4,8 C 1,7 C 79 % 1018,5 hPa 0,0 l/m 0 min 0 min 0 W/m 8,4 km/h (2 Bft)
16.02.2015 18:00 4,8 C 1,7 C 79 % 1018,5 hPa 0,0 l/m 0 min 0 min 0 W/m 8,4 km/h (2 Bft)
16.02.2015 18:02 4,8 C 1,7 C 79 % 1018,6 hPa 0,0 l/m 0 min 0 min 0 W/m 6,3 km/h (2 Bft)
16.02.2015 18:06 4,7 C 1,1 C 79 % 1018,7 hPa 0,0 l/m 0 min 0 min 0 W/m 8,4 km/h (2 Bft)
16.02.2015 18:08 4,6 C 1,1 C 79 % 1018,7 hPa 0,0 l/m 0 min 0 min 0 W/m 10,5 km/h (2 Bft)
16.02.2015 18:10 4,6 C 1,1 C 79 % 1018,8 hPa 0,0 l/m 0 min 0 min 0 W/m 6,3 km/h (2 Bft)
16.02.2015 18:12 4,5 C 1,1 C 79 % 1018,8 hPa 0,0 l/m 0 min 0 min 0 W/m 10,5 km/h (2 Bft)
16.02.2015 18:14 4,4 C 1,7 C 79 % 1018,8 hPa 0,0 l/m 0 min 0 min 0 W/m 8,4 km/h (2 Bft)
16.02.2015 18:16 4,4 C 1,1 C 79 % 1018,8 hPa 0,0 l/m 0 min 0 min 0 W/m 8,4 km/h (2 Bft)
16.02.2015 18:18 4,4 C 1,1 C 79 % 1018,9 hPa 0,0 l/m 0 min 0 min 0 W/m 8,4 km/h (2 Bft)
16.02.2015 18:20 4,3 C 1,1 C 79 % 1018,9 hPa 0,0 l/m 0 min 0 min 0 W/m 12,6 km/h (3 Bft)
16.02.2015 18:22 4,3 C 1,1 C 80 % 1018,9 hPa 0,0 l/m 0 min 0 min 0 W/m 10,5 km/h (2 Bft)
16.02.2015 18:24 4,2 C 1,7 C 80 % 1018,9 hPa 0,0 l/m 0 min 0 min 0 W/m 10,5 km/h (2 Bft)
16.02.2015 18:26 4,2 C 1,7 C 80 % 1018,9 hPa 0,0 l/m 0 min 0 min 0 W/m 12,6 km/h (3 Bft)
16.02.2015 18:28 4,1 C 1,1 C 80 % 1019,0 hPa 0,0 l/m 0 min 0 min 0 W/m 12,6 km/h (3 Bft)
16.02.2015 18:30 4,1 C 1,1 C 80 % 1019,1 hPa 0,0 l/m 0 min 0 min 0 W/m 14,6 km/h (3 Bft)
16.02.2015 18:32 4,0 C 1,1 C 80 % 1019,0 hPa 0,0 l/m 0 min 0 min 0 W/m 10,5 km/h (2 Bft)
16.02.2015 18:34 4,0 C 1,1 C 81 % 1019,0 hPa 0,0 l/m 0 min 0 min 0 W/m 8,4 km/h (2 Bft)
16.02.2015 18:36 3,9 C 1,1 C 81 % 1019,0 hPa 0,0 l/m 0 min 0 min 0 W/m 10,5 km/h (2 Bft)
16.02.2015 18:38 3,9 C 1,1 C 81 % 1019,1 hPa 0,0 l/m 0 min 0 min 0 W/m 10,5 km/h (2 Bft)
16.02.2015 18:40 3,9 C 1,1 C 81 % 1019,1 hPa 0,0 l/m 0 min 0 min 0 W/m 10,5 km/h (2 Bft)
16.02.2015 18:42 3,8 C 1,1 C 81 % 1019,1 hPa 0,0 l/m 0 min 0 min 0 W/m 8,4 km/h (2 Bft)
16.02.2015 18:44 3,8 C 1,1 C 81 % 1019,0 hPa 0,0 l/m 0 min 0 min 0 W/m 10,5 km/h (2 Bft)
16.02.2015 18:46 3,8 C 1,1 C 81 % 1019,0 hPa 0,0 l/m 0 min 0 min 0 W/m 10,5 km/h (2 Bft)
16.02.2015 18:48 3,7 C 1,1 C 81 % 1019,0 hPa 0,0 l/m 0 min 0 min 0 W/m 10,5 km/h (2 Bft)
16.02.2015 18:50 3,7 C 1,1 C 81 % 1019,1 hPa 0,0 l/m 0 min 0 min 0 W/m 10,5 km/h (2 Bft)
16.02.2015 18:52 3,7 C 1,1 C 82 % 1019,1 hPa 0,0 l/m 0 min 0 min 0 W/m 16,7 km/h (3 Bft)
16.02.2015 18:54 3,6 C 1,1 C 82 % 1019,1 hPa 0,0 l/m 0 min 0 min 0 W/m 10,5 km/h (2 Bft)
16.02.2015 18:56 3,6 C 1,1 C 82 % 1019,2 hPa 0,0 l/m 0 min 0 min 0 W/m 18,8 km/h (3 Bft)
16.02.2015 18:58 3,6 C 1,1 C 82 % 1019,2 hPa 0,0 l/m 0 min 0 min 0 W/m 12,6 km/h (3 Bft)
16.02.2015 19:00 3,5 C 1,1 C 82 % 1019,1 hPa 0,0 l/m 0 min 0 min 0 W/m 18,8 km/h (3 Bft)
16.02.2015 19:02 3,5 C 1,1 C 82 % 1019,2 hPa 0,0 l/m 0 min 0 min 0 W/m 14,6 km/h (3 Bft)
16.02.2015 19:04 3,5 C 1,1 C 82 % 1019,2 hPa 0,0 l/m 0 min 0 min 0 W/m 12,6 km/h (3 Bft)
16.02.2015 19:06 3,4 C 1,1 C 82 % 1019,2 hPa 0,0 l/m 0 min 0 min 0 W/m 16,7 km/h (3 Bft)
16.02.2015 19:08 3,4 C 1,1 C 82 % 1019,2 hPa 0,0 l/m 0 min 0 min 0 W/m 18,8 km/h (3 Bft)
16.02.2015 19:10 3,4 C 1,1 C 82 % 1019,2 hPa 0,0 l/m 0 min 0 min 0 W/m 12,6 km/h (3 Bft)
16.02.2015 19:12 3,4 C 1,1 C 83 % 1019,3 hPa 0,0 l/m 0 min 0 min 0 W/m 16,7 km/h (3 Bft)
16.02.2015 19:14 3,3 C 1,1 C 83 % 1019,3 hPa 0,0 l/m 0 min 0 min 0 W/m 16,7 km/h (3 Bft)
16.02.2015 19:16 3,3 C 1,1 C 83 % 1019,2 hPa 0,0 l/m 0 min 0 min 0 W/m 14,6 km/h (3 Bft)
16.02.2015 19:18 3,3 C 1,1 C 83 % 1019,2 hPa 0,0 l/m 0 min 0 min 0 W/m 20,9 km/h (4 Bft)
16.02.2015 19:20 3,3 C 1,1 C 83 % 1019,3 hPa 0,0 l/m 0 min 0 min 0 W/m 14,6 km/h (3 Bft)
16.02.2015 19:22 3,3 C 1,1 C 83 % 1019,2 hPa 0,0 l/m 0 min 0 min 0 W/m 12,6 km/h (3 Bft)
16.02.2015 19:24 3,2 C 1,1 C 83 % 1019,2 hPa 0,0 l/m 0 min 0 min 0 W/m 12,6 km/h (3 Bft)
16.02.2015 19:26 3,2 C 1,1 C 83 % 1019,3 hPa 0,0 l/m 0 min 0 min 0 W/m 12,6 km/h (3 Bft)
16.02.2015 19:28 3,2 C 1,1 C 83 % 1019,4 hPa 0,0 l/m 0 min 0 min 0 W/m 10,5 km/h (2 Bft)
16.02.2015 19:30 3,2 C 0,6 C 83 % 1019,4 hPa 0,0 l/m 0 min 0 min 0 W/m 12,6 km/h (3 Bft)
16.02.2015 19:32 3,1 C 0,6 C 83 % 1019,4 hPa 0,0 l/m 0 min 0 min 0 W/m 12,6 km/h (3 Bft)
16.02.2015 19:34 3,1 C 0,6 C 84 % 1019,4 hPa 0,0 l/m 0 min 0 min 0 W/m 10,5 km/h (2 Bft)
16.02.2015 19:36 3,1 C 0,6 C 83 % 1019,4 hPa 0,0 l/m 0 min 0 min 0 W/m 10,5 km/h (2 Bft)
16.02.2015 19:38 3,0 C 0,6 C 83 % 1019,5 hPa 0,0 l/m 0 min 0 min 0 W/m 14,6 km/h (3 Bft)
16.02.2015 19:40 2,9 C 0,6 C 84 % 1019,5 hPa 0,0 l/m 0 min 0 min 0 W/m 12,6 km/h (3 Bft)
16.02.2015 19:42 2,9 C 0,6 C 84 % 1019,5 hPa 0,0 l/m 0 min 0 min 0 W/m 18,8 km/h (3 Bft)
16.02.2015 19:44 2,9 C 0,6 C 84 % 1019,5 hPa 0,0 l/m 0 min 0 min 0 W/m 14,6 km/h (3 Bft)
16.02.2015 19:46 2,9 C 0,6 C 84 % 1019,5 hPa 0,0 l/m 0 min 0 min 0 W/m 16,7 km/h (3 Bft)
16.02.2015 19:48 2,8 C 0,6 C 84 % 1019,6 hPa 0,0 l/m 0 min 0 min 0 W/m 16,7 km/h (3 Bft)
16.02.2015 19:50 2,8 C 0,6 C 84 % 1019,5 hPa 0,0 l/m 0 min 0 min 0 W/m 18,8 km/h (3 Bft)
16.02.2015 19:52 2,8 C 0,6 C 84 % 1019,5 hPa 0,0 l/m 0 min 0 min 0 W/m 12,6 km/h (3 Bft)
16.02.2015 19:54 2,7 C 0,6 C 84 % 1019,5 hPa 0,0 l/m 0 min 0 min 0 W/m 14,6 km/h (3 Bft)
16.02.2015 19:56 2,7 C 0,6 C 85 % 1019,6 hPa 0,0 l/m 0 min 0 min 0 W/m 14,6 km/h (3 Bft)
16.02.2015 19:58 2,7 C 0,6 C 85 % 1019,6 hPa 0,0 l/m 0 min 0 min 0 W/m 16,7 km/h (3 Bft)
16.02.2015 20:00 2,7 C 0,6 C 85 % 1019,6 hPa 0,0 l/m 0 min 0 min 0 W/m 16,7 km/h (3 Bft)
16.02.2015 20:02 2,6 C 0,6 C 85 % 1019,6 hPa 0,0 l/m 0 min 0 min 0 W/m 16,7 km/h (3 Bft)
16.02.2015 20:04 2,6 C 0,6 C 85 % 1019,6 hPa 0,0 l/m 0 min 0 min 0 W/m 12,6 km/h (3 Bft)
16.02.2015 20:06 2,6 C 0,6 C 85 % 1019,6 hPa 0,0 l/m 0 min 0 min 0 W/m 12,6 km/h (3 Bft)
16.02.2015 20:08 2,5 C 0,6 C 85 % 1019,6 hPa 0,0 l/m 0 min 0 min 0 W/m 12,6 km/h (3 Bft)
16.02.2015 20:10 2,5 C 0,6 C 85 % 1019,6 hPa 0,0 l/m 0 min 0 min 0 W/m 14,6 km/h (3 Bft)
16.02.2015 20:12 2,4 C 0,6 C 85 % 1019,6 hPa 0,0 l/m 0 min 0 min 0 W/m 14,6 km/h (3 Bft)
16.02.2015 20:14 2,4 C 0,6 C 85 % 1019,7 hPa 0,0 l/m 0 min 0 min 0 W/m 14,6 km/h (3 Bft)
16.02.2015 20:16 2,4 C 0,6 C 86 % 1019,6 hPa 0,0 l/m 0 min 0 min 0 W/m 16,7 km/h (3 Bft)
16.02.2015 20:18 2,4 C 0,6 C 85 % 1019,7 hPa 0,0 l/m 0 min 0 min 0 W/m 12,6 km/h (3 Bft)
16.02.2015 20:20 2,3 C 0,6 C 85 % 1019,7 hPa 0,0 l/m 0 min 0 min 0 W/m 16,7 km/h (3 Bft)
16.02.2015 20:22 2,3 C 0,6 C 86 % 1019,7 hPa 0,0 l/m 0 min 0 min 0 W/m 14,6 km/h (3 Bft)
16.02.2015 20:24 2,3 C 0,6 C 86 % 1019,7 hPa 0,0 l/m 0 min 0 min 0 W/m 12,6 km/h (3 Bft)
16.02.2015 20:26 2,3 C 0,6 C 86 % 1019,7 hPa 0,0 l/m 0 min 0 min 0 W/m 20,9 km/h (4 Bft)
16.02.2015 20:28 2,2 C 0,6 C 86 % 1019,8 hPa 0,0 l/m 0 min 0 min 0 W/m 16,7 km/h (3 Bft)
16.02.2015 20:30 2,2 C 0,6 C 86 % 1019,8 hPa 0,0 l/m 0 min 0 min 0 W/m 12,6 km/h (3 Bft)
16.02.2015 20:32 2,2 C 0,6 C 86 % 1019,9 hPa 0,0 l/m 0 min 0 min 0 W/m 10,5 km/h (2 Bft)
16.02.2015 20:34 2,2 C 0,0 C 86 % 1019,9 hPa 0,0 l/m 0 min 0 min 0 W/m 12,6 km/h (3 Bft)
16.02.2015 20:36 2,1 C 0,0 C 86 % 1020,0 hPa 0,0 l/m 0 min 0 min 0 W/m 12,6 km/h (3 Bft)
16.02.2015 20:38 2,1 C 0,0 C 86 % 1020,0 hPa 0,0 l/m 0 min 0 min 0 W/m 12,6 km/h (3 Bft)
16.02.2015 20:40 2,1 C 0,0 C 86 % 1020,1 hPa 0,0 l/m 0 min 0 min 0 W/m 12,6 km/h (3 Bft)
16.02.2015 20:42 2,1 C 0,0 C 86 % 1020,1 hPa 0,0 l/m 0 min 0 min 0 W/m 14,6 km/h (3 Bft)
16.02.2015 20:44 2,0 C 0,0 C 86 % 1020,1 hPa 0,0 l/m 0 min 0 min 0 W/m 12,6 km/h (3 Bft)
16.02.2015 20:46 2,0 C 0,0 C 87 % 1020,1 hPa 0,0 l/m 0 min 0 min 0 W/m 14,6 km/h (3 Bft)
16.02.2015 20:48 1,9 C 0,0 C 86 % 1020,1 hPa 0,0 l/m 0 min 0 min 0 W/m 10,5 km/h (2 Bft)
16.02.2015 20:50 1,9 C 0,0 C 87 % 1020,1 hPa 0,0 l/m 0 min 0 min 0 W/m 10,5 km/h (2 Bft)
16.02.2015 20:52 1,9 C 0,0 C 87 % 1020,0 hPa 0,0 l/m 0 min 0 min 0 W/m 12,6 km/h (3 Bft)
16.02.2015 20:54 1,9 C 0,0 C 87 % 1020,1 hPa 0,0 l/m 0 min 0 min 0 W/m 12,6 km/h (3 Bft)
16.02.2015 20:56 1,8 C 0,0 C 87 % 1020,1 hPa 0,0 l/m 0 min 0 min 0 W/m 14,6 km/h (3 Bft)
16.02.2015 20:58 1,8 C 0,0 C 87 % 1020,1 hPa 0,0 l/m 0 min 0 min 0 W/m 14,6 km/h (3 Bft)
16.02.2015 21:00 1,8 C 0,0 C 87 % 1020,1 hPa 0,0 l/m 0 min 0 min 0 W/m 12,6 km/h (3 Bft)
16.02.2015 21:02 1,8 C 0,0 C 87 % 1020,1 hPa 0,0 l/m 0 min 0 min 0 W/m 14,6 km/h (3 Bft)
16.02.2015 21:04 1,7 C 0,0 C 87 % 1020,1 hPa 0,0 l/m 0 min 0 min 0 W/m 12,6 km/h (3 Bft)
16.02.2015 21:06 1,7 C 0,0 C 87 % 1020,1 hPa 0,0 l/m 0 min 0 min 0 W/m 10,5 km/h (2 Bft)
16.02.2015 21:08 1,7 C 0,0 C 87 % 1020,1 hPa 0,0 l/m 0 min 0 min 0 W/m 16,7 km/h (3 Bft)
16.02.2015 21:10 1,7 C 0,0 C 87 % 1020,2 hPa 0,0 l/m 0 min 0 min 0 W/m 12,6 km/h (3 Bft)
16.02.2015 21:12 1,6 C 0,0 C 87 % 1020,2 hPa 0,0 l/m 0 min 0 min 0 W/m 14,6 km/h (3 Bft)
16.02.2015 21:14 1,6 C 0,0 C 88 % 1020,3 hPa 0,0 l/m 0 min 0 min 0 W/m 12,6 km/h (3 Bft)
16.02.2015 21:16 1,6 C 0,0 C 88 % 1020,3 hPa 0,0 l/m 0 min 0 min 0 W/m 16,7 km/h (3 Bft)
16.02.2015 21:18 1,6 C 0,0 C 88 % 1020,4 hPa 0,0 l/m 0 min 0 min 0 W/m 12,6 km/h (3 Bft)
16.02.2015 21:20 1,5 C 0,0 C 88 % 1020,5 hPa 0,0 l/m 0 min 0 min 0 W/m 16,7 km/h (3 Bft)
16.02.2015 21:22 1,5 C 0,0 C 88 % 1020,5 hPa 0,0 l/m 0 min 0 min 0 W/m 12,6 km/h (3 Bft)
16.02.2015 21:24 1,5 C -0,6 C 88 % 1020,6 hPa 0,0 l/m 0 min 0 min 0 W/m 12,6 km/h (3 Bft)
16.02.2015 21:26 1,4 C -0,6 C 88 % 1020,6 hPa 0,0 l/m 0 min 0 min 0 W/m 14,6 km/h (3 Bft)
16.02.2015 21:28 1,4 C -0,6 C 88 % 1020,6 hPa 0,0 l/m 0 min 0 min 0 W/m 12,6 km/h (3 Bft)
16.02.2015 21:30 1,4 C -0,6 C 88 % 1020,6 hPa 0,0 l/m 0 min 0 min 0 W/m 18,8 km/h (3 Bft)
16.02.2015 21:32 1,4 C -0,6 C 88 % 1020,6 hPa 0,0 l/m 0 min 0 min 0 W/m 12,6 km/h (3 Bft)
16.02.2015 21:34 1,4 C -0,6 C 88 % 1020,7 hPa 0,0 l/m 0 min 0 min 0 W/m 12,6 km/h (3 Bft)
16.02.2015 21:36 1,4 C -0,6 C 88 % 1020,6 hPa 0,0 l/m 0 min 0 min 0 W/m 10,5 km/h (2 Bft)
16.02.2015 21:38 1,3 C -0,6 C 88 % 1020,7 hPa 0,0 l/m 0 min 0 min 0 W/m 10,5 km/h (2 Bft)
16.02.2015 21:40 1,3 C -0,6 C 88 % 1020,7 hPa 0,0 l/m 0 min 0 min 0 W/m 12,6 km/h (3 Bft)
16.02.2015 21:42 1,3 C -0,6 C 88 % 1020,7 hPa 0,0 l/m 0 min 0 min 0 W/m 10,5 km/h (2 Bft)
16.02.2015 21:44 1,3 C -0,6 C 88 % 1020,7 hPa 0,0 l/m 0 min 0 min 0 W/m 12,6 km/h (3 Bft)
16.02.2015 21:46 1,2 C -0,6 C 88 % 1020,8 hPa 0,0 l/m 0 min 0 min 0 W/m 12,6 km/h (3 Bft)
16.02.2015 21:48 1,2 C -0,6 C 89 % 1020,8 hPa 0,0 l/m 0 min 0 min 0 W/m 14,6 km/h (3 Bft)
16.02.2015 21:50 1,2 C -0,6 C 89 % 1020,8 hPa 0,0 l/m 0 min 0 min 0 W/m 14,6 km/h (3 Bft)
16.02.2015 21:52 1,2 C -0,6 C 89 % 1020,8 hPa 0,0 l/m 0 min 0 min 0 W/m 10,5 km/h (2 Bft)
16.02.2015 21:54 1,2 C -0,6 C 89 % 1020,8 hPa 0,0 l/m 0 min 0 min 0 W/m 12,6 km/h (3 Bft)
16.02.2015 21:56 1,1 C -0,6 C 89 % 1020,8 hPa 0,0 l/m 0 min 0 min 0 W/m 10,5 km/h (2 Bft)
16.02.2015 21:58 1,1 C -0,6 C 89 % 1020,8 hPa 0,0 l/m 0 min 0 min 0 W/m 10,5 km/h (2 Bft)
16.02.2015 22:00 1,1 C -0,6 C 89 % 1020,8 hPa 0,0 l/m 0 min 0 min 0 W/m 14,6 km/h (3 Bft)
16.02.2015 22:02 1,1 C -0,6 C 89 % 1020,8 hPa 0,0 l/m 0 min 0 min 0 W/m 14,6 km/h (3 Bft)
16.02.2015 22:04 1,1 C -0,6 C 89 % 1020,8 hPa 0,0 l/m 0 min 0 min 0 W/m 12,6 km/h (3 Bft)
16.02.2015 22:06 1,0 C -0,6 C 89 % 1020,9 hPa 0,0 l/m 0 min 0 min 0 W/m 12,6 km/h (3 Bft)
16.02.2015 22:08 1,0 C -0,6 C 89 % 1020,9 hPa 0,0 l/m 0 min 0 min 0 W/m 12,6 km/h (3 Bft)
16.02.2015 22:10 0,9 C -0,6 C 89 % 1021,0 hPa 0,0 l/m 0 min 0 min 0 W/m 12,6 km/h (3 Bft)
16.02.2015 22:12 0,9 C -0,6 C 89 % 1021,0 hPa 0,0 l/m 0 min 0 min 0 W/m 10,5 km/h (2 Bft)
16.02.2015 22:14 0,9 C -1,1 C 89 % 1021,0 hPa 0,0 l/m 0 min 0 min 0 W/m 10,5 km/h (2 Bft)
16.02.2015 22:16 0,9 C -1,1 C 89 % 1020,9 hPa 0,0 l/m 0 min 0 min 0 W/m 10,5 km/h (2 Bft)
16.02.2015 22:18 0,9 C -1,1 C 89 % 1021,0 hPa 0,0 l/m 0 min 0 min 0 W/m 14,6 km/h (3 Bft)
16.02.2015 22:20 0,8 C -1,1 C 89 % 1021,0 hPa 0,0 l/m 0 min 0 min 0 W/m 10,5 km/h (2 Bft)
16.02.2015 22:22 0,8 C -1,1 C 89 % 1021,0 hPa 0,0 l/m 0 min 0 min 0 W/m 8,4 km/h (2 Bft)
16.02.2015 22:24 0,8 C -1,1 C 89 % 1021,1 hPa 0,0 l/m 0 min 0 min 0 W/m 10,5 km/h (2 Bft)
16.02.2015 22:26 0,8 C -1,1 C 89 % 1021,0 hPa 0,0 l/m 0 min 0 min 0 W/m 12,6 km/h (3 Bft)
16.02.2015 22:28 0,8 C -1,1 C 89 % 1021,0 hPa 0,0 l/m 0 min 0 min 0 W/m 8,4 km/h (2 Bft)
16.02.2015 22:30 0,7 C -1,1 C 89 % 1021,1 hPa 0,0 l/m 0 min 0 min 0 W/m 6,3 km/h (2 Bft)
16.02.2015 22:32 0,7 C -1,1 C 90 % 1021,0 hPa 0,0 l/m 0 min 0 min 0 W/m 8,4 km/h (2 Bft)
16.02.2015 22:34 0,7 C -1,1 C 90 % 1021,1 hPa 0,0 l/m 0 min 0 min 0 W/m 10,5 km/h (2 Bft)
16.02.2015 22:36 0,7 C -1,1 C 90 % 1021,1 hPa 0,0 l/m 0 min 0 min 0 W/m 8,4 km/h (2 Bft)
16.02.2015 22:38 0,7 C -1,1 C 90 % 1021,1 hPa 0,0 l/m 0 min 0 min 0 W/m 12,6 km/h (3 Bft)
16.02.2015 22:40 0,6 C -1,1 C 90 % 1021,1 hPa 0,0 l/m 0 min 0 min 0 W/m 12,6 km/h (3 Bft)
16.02.2015 22:42 0,6 C -1,1 C 90 % 1021,1 hPa 0,0 l/m 0 min 0 min 0 W/m 10,5 km/h (2 Bft)
16.02.2015 22:44 0,6 C -1,1 C 90 % 1021,1 hPa 0,0 l/m 0 min 0 min 0 W/m 12,6 km/h (3 Bft)
16.02.2015 22:46 0,6 C -1,1 C 90 % 1021,1 hPa 0,0 l/m 0 min 0 min 0 W/m 14,6 km/h (3 Bft)
16.02.2015 22:48 0,5 C -1,1 C 90 % 1021,1 hPa 0,0 l/m 0 min 0 min 0 W/m 12,6 km/h (3 Bft)
16.02.2015 22:50 0,5 C -1,1 C 90 % 1021,1 hPa 0,0 l/m 0 min 0 min 0 W/m 12,6 km/h (3 Bft)
16.02.2015 22:52 0,5 C -1,1 C 90 % 1021,1 hPa 0,0 l/m 0 min 0 min 0 W/m 10,5 km/h (2 Bft)
16.02.2015 22:54 0,5 C -1,1 C 90 % 1021,2 hPa 0,0 l/m 0 min 0 min 0 W/m 10,5 km/h (2 Bft)
16.02.2015 22:56 0,5 C -1,1 C 90 % 1021,2 hPa 0,0 l/m 0 min 0 min 0 W/m 10,5 km/h (2 Bft)
16.02.2015 22:58 0,5 C -1,1 C 90 % 1021,2 hPa 0,0 l/m 0 min 0 min 0 W/m 12,6 km/h (3 Bft)
16.02.2015 23:00 0,5 C -1,1 C 90 % 1021,2 hPa 0,0 l/m 0 min 0 min 0 W/m 10,5 km/h (2 Bft)
16.02.2015 23:02 0,5 C -1,7 C 90 % 1021,2 hPa 0,0 l/m 0 min 0 min 0 W/m 10,5 km/h (2 Bft)
16.02.2015 23:04 0,5 C -1,7 C 90 % 1021,2 hPa 0,0 l/m 0 min 0 min 0 W/m 8,4 km/h (2 Bft)
16.02.2015 23:06 0,4 C -1,7 C 90 % 1021,3 hPa 0,0 l/m 0 min 0 min 0 W/m 8,4 km/h (2 Bft)
16.02.2015 23:08 0,4 C -1,7 C 90 % 1021,3 hPa 0,0 l/m 0 min 0 min 0 W/m 6,3 km/h (2 Bft)
16.02.2015 23:10 0,4 C -1,7 C 90 % 1021,2 hPa 0,0 l/m 0 min 0 min 0 W/m 6,3 km/h (2 Bft)
16.02.2015 23:12 0,4 C -1,7 C 90 % 1021,3 hPa 0,0 l/m 0 min 0 min 0 W/m 8,4 km/h (2 Bft)
16.02.2015 23:14 0,4 C -1,7 C 90 % 1021,4 hPa 0,0 l/m 0 min 0 min 0 W/m 4,2 km/h (1 Bft)
16.02.2015 23:16 0,4 C -1,7 C 90 % 1021,5 hPa 0,0 l/m 0 min 0 min 0 W/m 6,3 km/h (2 Bft)
16.02.2015 23:18 0,3 C -1,7 C 90 % 1021,5 hPa 0,0 l/m 0 min 0 min 0 W/m 8,4 km/h (2 Bft)
16.02.2015 23:20 0,3 C -2,2 C 90 % 1021,5 hPa 0,0 l/m 0 min 0 min 0 W/m 8,4 km/h (2 Bft)
16.02.2015 23:22 0,3 C -1,7 C 90 % 1021,5 hPa 0,0 l/m 0 min 0 min 0 W/m 8,4 km/h (2 Bft)
16.02.2015 23:24 0,3 C -1,7 C 90 % 1021,5 hPa 0,0 l/m 0 min 0 min 0 W/m 6,3 km/h (2 Bft)
16.02.2015 23:26 0,3 C -1,7 C 90 % 1021,5 hPa 0,0 l/m 0 min 0 min 0 W/m 6,3 km/h (2 Bft)
16.02.2015 23:28 0,2 C -2,2 C 90 % 1021,6 hPa 0,0 l/m 0 min 0 min 0 W/m 6,3 km/h (2 Bft)
16.02.2015 23:30 0,2 C -2,2 C 90 % 1021,6 hPa 0,0 l/m 0 min 0 min 0 W/m 6,3 km/h (2 Bft)
16.02.2015 23:32 0,2 C -2,2 C 90 % 1021,6 hPa 0,0 l/m 0 min 0 min 0 W/m 6,3 km/h (2 Bft)
16.02.2015 23:34 0,2 C -2,2 C 90 % 1021,5 hPa 0,0 l/m 0 min 0 min 0 W/m 6,3 km/h (2 Bft)
16.02.2015 23:36 0,2 C -2,2 C 90 % 1021,5 hPa 0,0 l/m 0 min 0 min 0 W/m 6,3 km/h (2 Bft)
16.02.2015 23:38 0,1 C -2,2 C 90 % 1021,5 hPa 0,0 l/m 0 min 0 min 0 W/m 6,3 km/h (2 Bft)
16.02.2015 23:40 0,1 C -2,2 C 90 % 1021,4 hPa 0,0 l/m 0 min 0 min 0 W/m 6,3 km/h (2 Bft)
16.02.2015 23:42 0,1 C -2,2 C 90 % 1021,4 hPa 0,0 l/m 0 min 0 min 0 W/m 10,5 km/h (2 Bft)
16.02.2015 23:44 0,1 C -2,2 C 90 % 1021,3 hPa 0,0 l/m 0 min 0 min 0 W/m 10,5 km/h (2 Bft)
16.02.2015 23:46 0,0 C -2,2 C 90 % 1021,3 hPa 0,0 l/m 0 min 0 min 0 W/m 10,5 km/h (2 Bft)
16.02.2015 23:48 0,0 C -2,2 C 90 % 1021,3 hPa 0,0 l/m 0 min 0 min 0 W/m 8,4 km/h (2 Bft)
16.02.2015 23:50 -0,1 C -2,2 C 91 % 1021,4 hPa 0,0 l/m 0 min 0 min 0 W/m 8,4 km/h (2 Bft)
16.02.2015 23:52 -0,1 C -2,2 C 91 % 1021,5 hPa 0,0 l/m 0 min 0 min 0 W/m 8,4 km/h (2 Bft)
16.02.2015 23:54 -0,1 C -2,2 C 91 % 1021,5 hPa 0,0 l/m 0 min 0 min 0 W/m 8,4 km/h (2 Bft)
16.02.2015 23:56 -0,1 C -2,2 C 91 % 1021,5 hPa 0,0 l/m 0 min 0 min 0 W/m 6,3 km/h (2 Bft)
16.02.2015 23:58 -0,1 C -2,2 C 91 % 1021,6 hPa 0,0 l/m 0 min 0 min 0 W/m 6,3 km/h (2 Bft)
_ Min-Zeit 00:14 00:00 15:50 00:00 - - - - 23:14
Minimum _ -0,7 C -2,8 C 72 % 1015,8 hPa - - - - 4,2 km/h (1 Bft)
_ Max-Zeit 15:30 13:56 00:48 23:28 00:00 07:58 00:00 12:50 12:56
Maximum _ 7,4 C 5,6 C 93 % 1021,6 hPa 0,0 l/m 2 min 0 min 422 W/m 33,5 km/h
S-SW (5 Bft)
Durchschnitt _ 2,4 C 0,7 C 86 % 1018,3 hPa #0,0 l/m #8:08 h #0 min. 218 W/m 14,9 km/h (3 Bft)
© 2015 W. Hausmann